<?xml version="1.0" encoding="utf-8"?>
<gpx xmlns:xsi="http://www.w3.org/2001/XMLSchema-instance" xmlns:xsd="http://www.w3.org/2001/XMLSchema" version="1.1" creator="Shapelink.com" xmlns="http://www.topografix.com/GPX/1/1" xmlns:gpxtpx="http://www.garmin.com/xmlschemas/TrackPointExtension/v1">
  <metadata>
    <name>Løping 3.70 km, 2014-06-16</name>
    <desc></desc>
    <author><name>Mikael Blom</name></author> 
    <time>2014-06-16T20:03:49Z</time>
  </metadata>
  <trk>
    <name>Løping 3.70 km, 2014-06-16</name>
    <trkseg>
      <trkpt lat="59.9530578" lon="17.715904">
        <ele>51.0872</ele>
        <time>2014-06-16T20:03:49Z</time>
      </trkpt>
      <trkpt lat="59.9530438" lon="17.7159408">
        <ele>51.5679</ele>
        <time>2014-06-16T20:03:50Z</time>
      </trkpt>
      <trkpt lat="59.9530247" lon="17.7159797">
        <ele>51.5679</ele>
        <time>2014-06-16T20:03:51Z</time>
      </trkpt>
      <trkpt lat="59.9530121" lon="17.7160287">
        <ele>51.5679</ele>
        <time>2014-06-16T20:03:52Z</time>
      </trkpt>
      <trkpt lat="59.9529994" lon="17.7160707">
        <ele>51.0872</ele>
        <time>2014-06-16T20:03:53Z</time>
      </trkpt>
      <trkpt lat="59.9529908" lon="17.7161265">
        <ele>51.0872</ele>
        <time>2014-06-16T20:03:54Z</time>
      </trkpt>
      <trkpt lat="59.9529836" lon="17.7161794">
        <ele>51.5679</ele>
        <time>2014-06-16T20:03:55Z</time>
      </trkpt>
      <trkpt lat="59.9529748" lon="17.7162382">
        <ele>51.5679</ele>
        <time>2014-06-16T20:03:56Z</time>
      </trkpt>
      <trkpt lat="59.9529662" lon="17.7162899">
        <ele>51.5679</ele>
        <time>2014-06-16T20:03:57Z</time>
      </trkpt>
      <trkpt lat="59.9529597" lon="17.7163391">
        <ele>50.6066</ele>
        <time>2014-06-16T20:03:58Z</time>
      </trkpt>
      <trkpt lat="59.9529532" lon="17.7163873">
        <ele>49.6453</ele>
        <time>2014-06-16T20:03:59Z</time>
      </trkpt>
      <trkpt lat="59.9529516" lon="17.7164422">
        <ele>49.6453</ele>
        <time>2014-06-16T20:04:00Z</time>
      </trkpt>
      <trkpt lat="59.9529538" lon="17.7165059">
        <ele>49.6453</ele>
        <time>2014-06-16T20:04:01Z</time>
      </trkpt>
      <trkpt lat="59.9529574" lon="17.7165665">
        <ele>49.6453</ele>
        <time>2014-06-16T20:04:02Z</time>
      </trkpt>
      <trkpt lat="59.9529552" lon="17.7166235">
        <ele>49.6453</ele>
        <time>2014-06-16T20:04:03Z</time>
      </trkpt>
      <trkpt lat="59.9529533" lon="17.7166813">
        <ele>49.6453</ele>
        <time>2014-06-16T20:04:04Z</time>
      </trkpt>
      <trkpt lat="59.9529537" lon="17.7167364">
        <ele>49.1646</ele>
        <time>2014-06-16T20:04:05Z</time>
      </trkpt>
      <trkpt lat="59.9529499" lon="17.7167872">
        <ele>49.1646</ele>
        <time>2014-06-16T20:04:06Z</time>
      </trkpt>
      <trkpt lat="59.952946" lon="17.7168422">
        <ele>49.6453</ele>
        <time>2014-06-16T20:04:07Z</time>
      </trkpt>
      <trkpt lat="59.9529445" lon="17.7168974">
        <ele>50.6066</ele>
        <time>2014-06-16T20:04:08Z</time>
      </trkpt>
      <trkpt lat="59.952937" lon="17.7169479">
        <ele>50.6066</ele>
        <time>2014-06-16T20:04:09Z</time>
      </trkpt>
      <trkpt lat="59.9529316" lon="17.7169979">
        <ele>51.0872</ele>
        <time>2014-06-16T20:04:10Z</time>
      </trkpt>
      <trkpt lat="59.9529214" lon="17.7170445">
        <ele>51.0872</ele>
        <time>2014-06-16T20:04:11Z</time>
      </trkpt>
      <trkpt lat="59.9529087" lon="17.7170914">
        <ele>51.0872</ele>
        <time>2014-06-16T20:04:12Z</time>
      </trkpt>
      <trkpt lat="59.9528993" lon="17.7171405">
        <ele>51.0872</ele>
        <time>2014-06-16T20:04:13Z</time>
      </trkpt>
      <trkpt lat="59.9528904" lon="17.717181">
        <ele>50.6066</ele>
        <time>2014-06-16T20:04:14Z</time>
      </trkpt>
      <trkpt lat="59.9528797" lon="17.7172291">
        <ele>50.126</ele>
        <time>2014-06-16T20:04:15Z</time>
      </trkpt>
      <trkpt lat="59.9528687" lon="17.7172791">
        <ele>50.6066</ele>
        <time>2014-06-16T20:04:16Z</time>
      </trkpt>
      <trkpt lat="59.9528584" lon="17.7173245">
        <ele>50.6066</ele>
        <time>2014-06-16T20:04:17Z</time>
      </trkpt>
      <trkpt lat="59.9528453" lon="17.7173684">
        <ele>50.126</ele>
        <time>2014-06-16T20:04:18Z</time>
      </trkpt>
      <trkpt lat="59.9528357" lon="17.7174119">
        <ele>50.126</ele>
        <time>2014-06-16T20:04:19Z</time>
      </trkpt>
      <trkpt lat="59.9528308" lon="17.7174667">
        <ele>50.6066</ele>
        <time>2014-06-16T20:04:20Z</time>
      </trkpt>
      <trkpt lat="59.952822" lon="17.717517">
        <ele>51.0872</ele>
        <time>2014-06-16T20:04:21Z</time>
      </trkpt>
      <trkpt lat="59.9528097" lon="17.7175545">
        <ele>50.6066</ele>
        <time>2014-06-16T20:04:22Z</time>
      </trkpt>
      <trkpt lat="59.9527957" lon="17.7175966">
        <ele>51.0872</ele>
        <time>2014-06-16T20:04:23Z</time>
      </trkpt>
      <trkpt lat="59.9527823" lon="17.7176426">
        <ele>50.6066</ele>
        <time>2014-06-16T20:04:24Z</time>
      </trkpt>
      <trkpt lat="59.9527692" lon="17.7176891">
        <ele>50.126</ele>
        <time>2014-06-16T20:04:25Z</time>
      </trkpt>
      <trkpt lat="59.952749" lon="17.7177285">
        <ele>50.126</ele>
        <time>2014-06-16T20:04:26Z</time>
      </trkpt>
      <trkpt lat="59.9527325" lon="17.7177699">
        <ele>50.126</ele>
        <time>2014-06-16T20:04:27Z</time>
      </trkpt>
      <trkpt lat="59.9527147" lon="17.7178068">
        <ele>50.126</ele>
        <time>2014-06-16T20:04:28Z</time>
      </trkpt>
      <trkpt lat="59.9526977" lon="17.7178356">
        <ele>50.126</ele>
        <time>2014-06-16T20:04:29Z</time>
      </trkpt>
      <trkpt lat="59.9526783" lon="17.7178617">
        <ele>49.6453</ele>
        <time>2014-06-16T20:04:30Z</time>
      </trkpt>
      <trkpt lat="59.952661" lon="17.717894">
        <ele>49.1646</ele>
        <time>2014-06-16T20:04:31Z</time>
      </trkpt>
      <trkpt lat="59.9526481" lon="17.7179325">
        <ele>49.6453</ele>
        <time>2014-06-16T20:04:32Z</time>
      </trkpt>
      <trkpt lat="59.952635" lon="17.7179703">
        <ele>49.6453</ele>
        <time>2014-06-16T20:04:33Z</time>
      </trkpt>
      <trkpt lat="59.9526159" lon="17.7180065">
        <ele>50.126</ele>
        <time>2014-06-16T20:04:34Z</time>
      </trkpt>
      <trkpt lat="59.9525959" lon="17.7180454">
        <ele>50.126</ele>
        <time>2014-06-16T20:04:35Z</time>
      </trkpt>
      <trkpt lat="59.9525798" lon="17.7180811">
        <ele>49.6453</ele>
        <time>2014-06-16T20:04:36Z</time>
      </trkpt>
      <trkpt lat="59.9525689" lon="17.7181212">
        <ele>49.6453</ele>
        <time>2014-06-16T20:04:37Z</time>
      </trkpt>
      <trkpt lat="59.9525616" lon="17.7181703">
        <ele>49.1646</ele>
        <time>2014-06-16T20:04:38Z</time>
      </trkpt>
      <trkpt lat="59.9525436" lon="17.7182133">
        <ele>49.6453</ele>
        <time>2014-06-16T20:04:39Z</time>
      </trkpt>
      <trkpt lat="59.9525317" lon="17.7182704">
        <ele>49.1646</ele>
        <time>2014-06-16T20:04:40Z</time>
      </trkpt>
      <trkpt lat="59.9525197" lon="17.7183262">
        <ele>48.684</ele>
        <time>2014-06-16T20:04:41Z</time>
      </trkpt>
      <trkpt lat="59.9525123" lon="17.7183816">
        <ele>48.684</ele>
        <time>2014-06-16T20:04:42Z</time>
      </trkpt>
      <trkpt lat="59.9525076" lon="17.7184421">
        <ele>48.684</ele>
        <time>2014-06-16T20:04:43Z</time>
      </trkpt>
      <trkpt lat="59.9525051" lon="17.7185013">
        <ele>48.684</ele>
        <time>2014-06-16T20:04:44Z</time>
      </trkpt>
      <trkpt lat="59.9525021" lon="17.7185567">
        <ele>49.1646</ele>
        <time>2014-06-16T20:04:45Z</time>
      </trkpt>
      <trkpt lat="59.9524957" lon="17.7186059">
        <ele>49.1646</ele>
        <time>2014-06-16T20:04:46Z</time>
      </trkpt>
      <trkpt lat="59.9524897" lon="17.7186534">
        <ele>49.1646</ele>
        <time>2014-06-16T20:04:47Z</time>
      </trkpt>
      <trkpt lat="59.9524827" lon="17.7187031">
        <ele>49.1646</ele>
        <time>2014-06-16T20:04:48Z</time>
      </trkpt>
      <trkpt lat="59.9524761" lon="17.7187617">
        <ele>49.1646</ele>
        <time>2014-06-16T20:04:49Z</time>
      </trkpt>
      <trkpt lat="59.9524718" lon="17.7188198">
        <ele>49.6453</ele>
        <time>2014-06-16T20:04:50Z</time>
      </trkpt>
      <trkpt lat="59.9524588" lon="17.7188622">
        <ele>50.126</ele>
        <time>2014-06-16T20:04:51Z</time>
      </trkpt>
      <trkpt lat="59.9524517" lon="17.7189089">
        <ele>50.6066</ele>
        <time>2014-06-16T20:04:52Z</time>
      </trkpt>
      <trkpt lat="59.9524407" lon="17.7189483">
        <ele>50.6066</ele>
        <time>2014-06-16T20:04:53Z</time>
      </trkpt>
      <trkpt lat="59.9524299" lon="17.7189858">
        <ele>50.6066</ele>
        <time>2014-06-16T20:04:54Z</time>
      </trkpt>
      <trkpt lat="59.9524198" lon="17.7190395">
        <ele>51.0872</ele>
        <time>2014-06-16T20:04:55Z</time>
      </trkpt>
      <trkpt lat="59.9524071" lon="17.7190974">
        <ele>51.5679</ele>
        <time>2014-06-16T20:04:56Z</time>
      </trkpt>
      <trkpt lat="59.9523979" lon="17.7191503">
        <ele>51.5679</ele>
        <time>2014-06-16T20:04:57Z</time>
      </trkpt>
      <trkpt lat="59.9523917" lon="17.7192052">
        <ele>52.0486</ele>
        <time>2014-06-16T20:04:58Z</time>
      </trkpt>
      <trkpt lat="59.9523848" lon="17.719252">
        <ele>52.0486</ele>
        <time>2014-06-16T20:04:59Z</time>
      </trkpt>
      <trkpt lat="59.9523804" lon="17.7192857">
        <ele>51.5679</ele>
        <time>2014-06-16T20:05:00Z</time>
      </trkpt>
      <trkpt lat="59.952377" lon="17.7193224">
        <ele>51.0872</ele>
        <time>2014-06-16T20:05:01Z</time>
      </trkpt>
      <trkpt lat="59.9523746" lon="17.7193652">
        <ele>50.6066</ele>
        <time>2014-06-16T20:05:02Z</time>
      </trkpt>
      <trkpt lat="59.9523772" lon="17.7194175">
        <ele>50.126</ele>
        <time>2014-06-16T20:05:03Z</time>
      </trkpt>
      <trkpt lat="59.9523785" lon="17.719469">
        <ele>50.126</ele>
        <time>2014-06-16T20:05:04Z</time>
      </trkpt>
      <trkpt lat="59.9523813" lon="17.719519">
        <ele>50.126</ele>
        <time>2014-06-16T20:05:05Z</time>
      </trkpt>
      <trkpt lat="59.9523853" lon="17.7195666">
        <ele>49.1646</ele>
        <time>2014-06-16T20:05:06Z</time>
      </trkpt>
      <trkpt lat="59.9523882" lon="17.7196078">
        <ele>48.684</ele>
        <time>2014-06-16T20:05:07Z</time>
      </trkpt>
      <trkpt lat="59.9523946" lon="17.7196461">
        <ele>48.2034</ele>
        <time>2014-06-16T20:05:08Z</time>
      </trkpt>
      <trkpt lat="59.9524077" lon="17.7196915">
        <ele>48.684</ele>
        <time>2014-06-16T20:05:09Z</time>
      </trkpt>
      <trkpt lat="59.9524189" lon="17.7197407">
        <ele>49.1646</ele>
        <time>2014-06-16T20:05:10Z</time>
      </trkpt>
      <trkpt lat="59.9524295" lon="17.7197842">
        <ele>49.6453</ele>
        <time>2014-06-16T20:05:11Z</time>
      </trkpt>
      <trkpt lat="59.952436" lon="17.7198293">
        <ele>50.126</ele>
        <time>2014-06-16T20:05:12Z</time>
      </trkpt>
      <trkpt lat="59.9524497" lon="17.7198839">
        <ele>50.126</ele>
        <time>2014-06-16T20:05:13Z</time>
      </trkpt>
      <trkpt lat="59.9524659" lon="17.7199466">
        <ele>51.5679</ele>
        <time>2014-06-16T20:05:14Z</time>
      </trkpt>
      <trkpt lat="59.9524777" lon="17.7200026">
        <ele>51.5679</ele>
        <time>2014-06-16T20:05:15Z</time>
      </trkpt>
      <trkpt lat="59.9524829" lon="17.7200533">
        <ele>51.0872</ele>
        <time>2014-06-16T20:05:16Z</time>
      </trkpt>
      <trkpt lat="59.9524891" lon="17.7201205">
        <ele>52.0486</ele>
        <time>2014-06-16T20:05:17Z</time>
      </trkpt>
      <trkpt lat="59.9524896" lon="17.7201854">
        <ele>52.0486</ele>
        <time>2014-06-16T20:05:18Z</time>
      </trkpt>
      <trkpt lat="59.9524863" lon="17.7202521">
        <ele>52.5292</ele>
        <time>2014-06-16T20:05:19Z</time>
      </trkpt>
      <trkpt lat="59.9524868" lon="17.7203133">
        <ele>53.4905</ele>
        <time>2014-06-16T20:05:20Z</time>
      </trkpt>
      <trkpt lat="59.9524901" lon="17.7203677">
        <ele>53.9712</ele>
        <time>2014-06-16T20:05:21Z</time>
      </trkpt>
      <trkpt lat="59.9524922" lon="17.72041">
        <ele>53.4905</ele>
        <time>2014-06-16T20:05:22Z</time>
      </trkpt>
      <trkpt lat="59.9524956" lon="17.7204602">
        <ele>53.4905</ele>
        <time>2014-06-16T20:05:23Z</time>
      </trkpt>
      <trkpt lat="59.9524968" lon="17.7205105">
        <ele>53.9712</ele>
        <time>2014-06-16T20:05:24Z</time>
      </trkpt>
      <trkpt lat="59.9524975" lon="17.7205607">
        <ele>53.9712</ele>
        <time>2014-06-16T20:05:25Z</time>
      </trkpt>
      <trkpt lat="59.9524968" lon="17.7206084">
        <ele>54.4518</ele>
        <time>2014-06-16T20:05:26Z</time>
      </trkpt>
      <trkpt lat="59.9524943" lon="17.7206478">
        <ele>54.4518</ele>
        <time>2014-06-16T20:05:27Z</time>
      </trkpt>
      <trkpt lat="59.952493" lon="17.7206908">
        <ele>53.4905</ele>
        <time>2014-06-16T20:05:28Z</time>
      </trkpt>
      <trkpt lat="59.95249" lon="17.7207442">
        <ele>53.4905</ele>
        <time>2014-06-16T20:05:29Z</time>
      </trkpt>
      <trkpt lat="59.9524886" lon="17.7207988">
        <ele>53.4905</ele>
        <time>2014-06-16T20:05:30Z</time>
      </trkpt>
      <trkpt lat="59.9524848" lon="17.7208501">
        <ele>53.0098</ele>
        <time>2014-06-16T20:05:31Z</time>
      </trkpt>
      <trkpt lat="59.9524808" lon="17.7209029">
        <ele>53.0098</ele>
        <time>2014-06-16T20:05:32Z</time>
      </trkpt>
      <trkpt lat="59.9524741" lon="17.7209508">
        <ele>52.5292</ele>
        <time>2014-06-16T20:05:33Z</time>
      </trkpt>
      <trkpt lat="59.9524663" lon="17.7210094">
        <ele>52.5292</ele>
        <time>2014-06-16T20:05:34Z</time>
      </trkpt>
      <trkpt lat="59.9524636" lon="17.7210649">
        <ele>52.5292</ele>
        <time>2014-06-16T20:05:35Z</time>
      </trkpt>
      <trkpt lat="59.9524621" lon="17.7211398">
        <ele>53.9712</ele>
        <time>2014-06-16T20:05:36Z</time>
      </trkpt>
      <trkpt lat="59.9524612" lon="17.7211954">
        <ele>54.9324</ele>
        <time>2014-06-16T20:05:37Z</time>
      </trkpt>
      <trkpt lat="59.9524601" lon="17.7212333">
        <ele>54.9324</ele>
        <time>2014-06-16T20:05:38Z</time>
      </trkpt>
      <trkpt lat="59.9524585" lon="17.721281">
        <ele>54.9324</ele>
        <time>2014-06-16T20:05:39Z</time>
      </trkpt>
      <trkpt lat="59.9524601" lon="17.721337">
        <ele>54.4518</ele>
        <time>2014-06-16T20:05:40Z</time>
      </trkpt>
      <trkpt lat="59.9524666" lon="17.7213979">
        <ele>53.9712</ele>
        <time>2014-06-16T20:05:41Z</time>
      </trkpt>
      <trkpt lat="59.952472" lon="17.7214721">
        <ele>54.9324</ele>
        <time>2014-06-16T20:05:42Z</time>
      </trkpt>
      <trkpt lat="59.9524738" lon="17.7215383">
        <ele>54.9324</ele>
        <time>2014-06-16T20:05:43Z</time>
      </trkpt>
      <trkpt lat="59.952474" lon="17.7215912">
        <ele>54.4518</ele>
        <time>2014-06-16T20:05:44Z</time>
      </trkpt>
      <trkpt lat="59.9524777" lon="17.721653">
        <ele>54.4518</ele>
        <time>2014-06-16T20:05:45Z</time>
      </trkpt>
      <trkpt lat="59.9524791" lon="17.7217206">
        <ele>54.4518</ele>
        <time>2014-06-16T20:05:46Z</time>
      </trkpt>
      <trkpt lat="59.9524853" lon="17.7217682">
        <ele>54.4518</ele>
        <time>2014-06-16T20:05:47Z</time>
      </trkpt>
      <trkpt lat="59.9524922" lon="17.7218272">
        <ele>54.9324</ele>
        <time>2014-06-16T20:05:48Z</time>
      </trkpt>
      <trkpt lat="59.9524989" lon="17.7218835">
        <ele>54.9324</ele>
        <time>2014-06-16T20:05:49Z</time>
      </trkpt>
      <trkpt lat="59.9525009" lon="17.7219466">
        <ele>55.4131</ele>
        <time>2014-06-16T20:05:50Z</time>
      </trkpt>
      <trkpt lat="59.9524994" lon="17.7220029">
        <ele>54.9324</ele>
        <time>2014-06-16T20:05:51Z</time>
      </trkpt>
      <trkpt lat="59.9524937" lon="17.7220611">
        <ele>54.9324</ele>
        <time>2014-06-16T20:05:52Z</time>
      </trkpt>
      <trkpt lat="59.9524901" lon="17.7221238">
        <ele>54.9324</ele>
        <time>2014-06-16T20:05:53Z</time>
      </trkpt>
      <trkpt lat="59.9524842" lon="17.7221854">
        <ele>54.4518</ele>
        <time>2014-06-16T20:05:54Z</time>
      </trkpt>
      <trkpt lat="59.9524703" lon="17.722247">
        <ele>53.9712</ele>
        <time>2014-06-16T20:05:55Z</time>
      </trkpt>
      <trkpt lat="59.952458" lon="17.7223045">
        <ele>53.4905</ele>
        <time>2014-06-16T20:05:56Z</time>
      </trkpt>
      <trkpt lat="59.9524487" lon="17.7223636">
        <ele>53.4905</ele>
        <time>2014-06-16T20:05:57Z</time>
      </trkpt>
      <trkpt lat="59.9524347" lon="17.7224169">
        <ele>53.9712</ele>
        <time>2014-06-16T20:05:58Z</time>
      </trkpt>
      <trkpt lat="59.9524249" lon="17.722462">
        <ele>53.4905</ele>
        <time>2014-06-16T20:05:59Z</time>
      </trkpt>
      <trkpt lat="59.9524166" lon="17.7225091">
        <ele>53.4905</ele>
        <time>2014-06-16T20:06:00Z</time>
      </trkpt>
      <trkpt lat="59.952414" lon="17.722566">
        <ele>53.9712</ele>
        <time>2014-06-16T20:06:01Z</time>
      </trkpt>
      <trkpt lat="59.9524107" lon="17.7226248">
        <ele>52.5292</ele>
        <time>2014-06-16T20:06:02Z</time>
      </trkpt>
      <trkpt lat="59.952406" lon="17.7226889">
        <ele>52.5292</ele>
        <time>2014-06-16T20:06:03Z</time>
      </trkpt>
      <trkpt lat="59.9524041" lon="17.7227426">
        <ele>52.5292</ele>
        <time>2014-06-16T20:06:04Z</time>
      </trkpt>
      <trkpt lat="59.9524143" lon="17.7227946">
        <ele>53.0098</ele>
        <time>2014-06-16T20:06:05Z</time>
      </trkpt>
      <trkpt lat="59.9524254" lon="17.7228423">
        <ele>53.0098</ele>
        <time>2014-06-16T20:06:06Z</time>
      </trkpt>
      <trkpt lat="59.9524347" lon="17.7228975">
        <ele>53.0098</ele>
        <time>2014-06-16T20:06:07Z</time>
      </trkpt>
      <trkpt lat="59.952443" lon="17.7229541">
        <ele>53.0098</ele>
        <time>2014-06-16T20:06:08Z</time>
      </trkpt>
      <trkpt lat="59.9524502" lon="17.72301">
        <ele>53.0098</ele>
        <time>2014-06-16T20:06:09Z</time>
      </trkpt>
      <trkpt lat="59.9524593" lon="17.7230598">
        <ele>52.5292</ele>
        <time>2014-06-16T20:06:10Z</time>
      </trkpt>
      <trkpt lat="59.9524684" lon="17.7231022">
        <ele>52.0486</ele>
        <time>2014-06-16T20:06:11Z</time>
      </trkpt>
      <trkpt lat="59.9524786" lon="17.7231575">
        <ele>52.0486</ele>
        <time>2014-06-16T20:06:12Z</time>
      </trkpt>
      <trkpt lat="59.952488" lon="17.7232108">
        <ele>51.0872</ele>
        <time>2014-06-16T20:06:13Z</time>
      </trkpt>
      <trkpt lat="59.9524975" lon="17.7232628">
        <ele>51.5679</ele>
        <time>2014-06-16T20:06:14Z</time>
      </trkpt>
      <trkpt lat="59.9525044" lon="17.7233084">
        <ele>51.0872</ele>
        <time>2014-06-16T20:06:15Z</time>
      </trkpt>
      <trkpt lat="59.9525151" lon="17.7233545">
        <ele>50.6066</ele>
        <time>2014-06-16T20:06:16Z</time>
      </trkpt>
      <trkpt lat="59.9525296" lon="17.7234056">
        <ele>50.126</ele>
        <time>2014-06-16T20:06:17Z</time>
      </trkpt>
      <trkpt lat="59.9525424" lon="17.7234509">
        <ele>49.1646</ele>
        <time>2014-06-16T20:06:18Z</time>
      </trkpt>
      <trkpt lat="59.9525559" lon="17.7235006">
        <ele>48.684</ele>
        <time>2014-06-16T20:06:19Z</time>
      </trkpt>
      <trkpt lat="59.9525714" lon="17.7235518">
        <ele>49.1646</ele>
        <time>2014-06-16T20:06:20Z</time>
      </trkpt>
      <trkpt lat="59.9525875" lon="17.7236022">
        <ele>49.1646</ele>
        <time>2014-06-16T20:06:21Z</time>
      </trkpt>
      <trkpt lat="59.9526097" lon="17.7236546">
        <ele>49.6453</ele>
        <time>2014-06-16T20:06:22Z</time>
      </trkpt>
      <trkpt lat="59.9526275" lon="17.7237042">
        <ele>49.1646</ele>
        <time>2014-06-16T20:06:23Z</time>
      </trkpt>
      <trkpt lat="59.9526446" lon="17.723748">
        <ele>48.684</ele>
        <time>2014-06-16T20:06:24Z</time>
      </trkpt>
      <trkpt lat="59.9526636" lon="17.723797">
        <ele>48.684</ele>
        <time>2014-06-16T20:06:25Z</time>
      </trkpt>
      <trkpt lat="59.9526692" lon="17.7238477">
        <ele>47.7225</ele>
        <time>2014-06-16T20:06:26Z</time>
      </trkpt>
      <trkpt lat="59.9526702" lon="17.7239001">
        <ele>47.2418</ele>
        <time>2014-06-16T20:06:27Z</time>
      </trkpt>
      <trkpt lat="59.9526657" lon="17.7239548">
        <ele>46.7612</ele>
        <time>2014-06-16T20:06:28Z</time>
      </trkpt>
      <trkpt lat="59.9526579" lon="17.7240218">
        <ele>46.7612</ele>
        <time>2014-06-16T20:06:29Z</time>
      </trkpt>
      <trkpt lat="59.9526497" lon="17.7240864">
        <ele>47.2418</ele>
        <time>2014-06-16T20:06:30Z</time>
      </trkpt>
      <trkpt lat="59.9526377" lon="17.724146">
        <ele>47.2418</ele>
        <time>2014-06-16T20:06:31Z</time>
      </trkpt>
      <trkpt lat="59.9526237" lon="17.7242044">
        <ele>47.2418</ele>
        <time>2014-06-16T20:06:32Z</time>
      </trkpt>
      <trkpt lat="59.9526063" lon="17.7242527">
        <ele>46.7612</ele>
        <time>2014-06-16T20:06:33Z</time>
      </trkpt>
      <trkpt lat="59.9525907" lon="17.7242984">
        <ele>47.2418</ele>
        <time>2014-06-16T20:06:34Z</time>
      </trkpt>
      <trkpt lat="59.9525736" lon="17.7243362">
        <ele>47.2418</ele>
        <time>2014-06-16T20:06:35Z</time>
      </trkpt>
      <trkpt lat="59.9525544" lon="17.724375">
        <ele>46.7612</ele>
        <time>2014-06-16T20:06:36Z</time>
      </trkpt>
      <trkpt lat="59.9525396" lon="17.7244227">
        <ele>46.7612</ele>
        <time>2014-06-16T20:06:37Z</time>
      </trkpt>
      <trkpt lat="59.9525256" lon="17.7244686">
        <ele>46.2806</ele>
        <time>2014-06-16T20:06:38Z</time>
      </trkpt>
      <trkpt lat="59.9525113" lon="17.7245133">
        <ele>45.7999</ele>
        <time>2014-06-16T20:06:39Z</time>
      </trkpt>
      <trkpt lat="59.9524909" lon="17.7245521">
        <ele>44.8386</ele>
        <time>2014-06-16T20:06:40Z</time>
      </trkpt>
      <trkpt lat="59.9524692" lon="17.7246009">
        <ele>45.3192</ele>
        <time>2014-06-16T20:06:41Z</time>
      </trkpt>
      <trkpt lat="59.9524508" lon="17.7246426">
        <ele>44.8386</ele>
        <time>2014-06-16T20:06:42Z</time>
      </trkpt>
      <trkpt lat="59.9524309" lon="17.7246841">
        <ele>44.8386</ele>
        <time>2014-06-16T20:06:43Z</time>
      </trkpt>
      <trkpt lat="59.9524087" lon="17.7247188">
        <ele>44.358</ele>
        <time>2014-06-16T20:06:44Z</time>
      </trkpt>
      <trkpt lat="59.9523861" lon="17.7247572">
        <ele>44.8386</ele>
        <time>2014-06-16T20:06:45Z</time>
      </trkpt>
      <trkpt lat="59.9523637" lon="17.7247966">
        <ele>45.3192</ele>
        <time>2014-06-16T20:06:46Z</time>
      </trkpt>
      <trkpt lat="59.9523445" lon="17.7248402">
        <ele>44.8386</ele>
        <time>2014-06-16T20:06:47Z</time>
      </trkpt>
      <trkpt lat="59.952326" lon="17.7248784">
        <ele>44.8386</ele>
        <time>2014-06-16T20:06:48Z</time>
      </trkpt>
      <trkpt lat="59.9523055" lon="17.7249137">
        <ele>44.8386</ele>
        <time>2014-06-16T20:06:49Z</time>
      </trkpt>
      <trkpt lat="59.9522843" lon="17.7249436">
        <ele>44.358</ele>
        <time>2014-06-16T20:06:50Z</time>
      </trkpt>
      <trkpt lat="59.9522658" lon="17.7249643">
        <ele>43.8773</ele>
        <time>2014-06-16T20:06:51Z</time>
      </trkpt>
      <trkpt lat="59.9522465" lon="17.7249899">
        <ele>43.3966</ele>
        <time>2014-06-16T20:06:52Z</time>
      </trkpt>
      <trkpt lat="59.9522255" lon="17.7250344">
        <ele>43.8773</ele>
        <time>2014-06-16T20:06:53Z</time>
      </trkpt>
      <trkpt lat="59.9522046" lon="17.7250717">
        <ele>43.8773</ele>
        <time>2014-06-16T20:06:54Z</time>
      </trkpt>
      <trkpt lat="59.9521845" lon="17.7251114">
        <ele>43.8773</ele>
        <time>2014-06-16T20:06:55Z</time>
      </trkpt>
      <trkpt lat="59.9521582" lon="17.7251526">
        <ele>43.8773</ele>
        <time>2014-06-16T20:06:56Z</time>
      </trkpt>
      <trkpt lat="59.9521289" lon="17.725185">
        <ele>43.3966</ele>
        <time>2014-06-16T20:06:57Z</time>
      </trkpt>
      <trkpt lat="59.9521045" lon="17.725225">
        <ele>43.8773</ele>
        <time>2014-06-16T20:06:58Z</time>
      </trkpt>
      <trkpt lat="59.9520797" lon="17.725267">
        <ele>43.8773</ele>
        <time>2014-06-16T20:06:59Z</time>
      </trkpt>
      <trkpt lat="59.9520551" lon="17.7252966">
        <ele>43.8773</ele>
        <time>2014-06-16T20:07:00Z</time>
      </trkpt>
      <trkpt lat="59.9520292" lon="17.7253307">
        <ele>43.8773</ele>
        <time>2014-06-16T20:07:01Z</time>
      </trkpt>
      <trkpt lat="59.95201" lon="17.7253751">
        <ele>43.8773</ele>
        <time>2014-06-16T20:07:02Z</time>
      </trkpt>
      <trkpt lat="59.9519906" lon="17.7254196">
        <ele>43.8773</ele>
        <time>2014-06-16T20:07:03Z</time>
      </trkpt>
      <trkpt lat="59.9519685" lon="17.7254669">
        <ele>43.8773</ele>
        <time>2014-06-16T20:07:04Z</time>
      </trkpt>
      <trkpt lat="59.9519492" lon="17.7255064">
        <ele>43.8773</ele>
        <time>2014-06-16T20:07:05Z</time>
      </trkpt>
      <trkpt lat="59.9519334" lon="17.7255448">
        <ele>43.8773</ele>
        <time>2014-06-16T20:07:06Z</time>
      </trkpt>
      <trkpt lat="59.9519136" lon="17.725582">
        <ele>43.3966</ele>
        <time>2014-06-16T20:07:07Z</time>
      </trkpt>
      <trkpt lat="59.9518938" lon="17.7256204">
        <ele>43.3966</ele>
        <time>2014-06-16T20:07:08Z</time>
      </trkpt>
      <trkpt lat="59.9518772" lon="17.7256633">
        <ele>43.3966</ele>
        <time>2014-06-16T20:07:09Z</time>
      </trkpt>
      <trkpt lat="59.9518617" lon="17.7257079">
        <ele>42.916</ele>
        <time>2014-06-16T20:07:10Z</time>
      </trkpt>
      <trkpt lat="59.9518457" lon="17.7257467">
        <ele>43.3966</ele>
        <time>2014-06-16T20:07:11Z</time>
      </trkpt>
      <trkpt lat="59.9518286" lon="17.7257765">
        <ele>43.3966</ele>
        <time>2014-06-16T20:07:12Z</time>
      </trkpt>
      <trkpt lat="59.9518066" lon="17.7258033">
        <ele>43.3966</ele>
        <time>2014-06-16T20:07:13Z</time>
      </trkpt>
      <trkpt lat="59.9517835" lon="17.7258249">
        <ele>42.916</ele>
        <time>2014-06-16T20:07:14Z</time>
      </trkpt>
      <trkpt lat="59.9517598" lon="17.7258441">
        <ele>43.3966</ele>
        <time>2014-06-16T20:07:15Z</time>
      </trkpt>
      <trkpt lat="59.9517412" lon="17.7258701">
        <ele>42.916</ele>
        <time>2014-06-16T20:07:16Z</time>
      </trkpt>
      <trkpt lat="59.9517236" lon="17.7258969">
        <ele>42.916</ele>
        <time>2014-06-16T20:07:17Z</time>
      </trkpt>
      <trkpt lat="59.9517093" lon="17.7259269">
        <ele>42.4354</ele>
        <time>2014-06-16T20:07:18Z</time>
      </trkpt>
      <trkpt lat="59.9516913" lon="17.7259612">
        <ele>41.9547</ele>
        <time>2014-06-16T20:07:19Z</time>
      </trkpt>
      <trkpt lat="59.9516689" lon="17.7259959">
        <ele>41.9547</ele>
        <time>2014-06-16T20:07:20Z</time>
      </trkpt>
      <trkpt lat="59.9516515" lon="17.7260281">
        <ele>41.9547</ele>
        <time>2014-06-16T20:07:21Z</time>
      </trkpt>
      <trkpt lat="59.9516342" lon="17.7260518">
        <ele>41.474</ele>
        <time>2014-06-16T20:07:22Z</time>
      </trkpt>
      <trkpt lat="59.9516183" lon="17.7260812">
        <ele>41.474</ele>
        <time>2014-06-16T20:07:23Z</time>
      </trkpt>
      <trkpt lat="59.9516059" lon="17.7261171">
        <ele>40.9934</ele>
        <time>2014-06-16T20:07:24Z</time>
      </trkpt>
      <trkpt lat="59.9515881" lon="17.7261592">
        <ele>40.5128</ele>
        <time>2014-06-16T20:07:25Z</time>
      </trkpt>
      <trkpt lat="59.9515742" lon="17.726197">
        <ele>40.5128</ele>
        <time>2014-06-16T20:07:26Z</time>
      </trkpt>
      <trkpt lat="59.9515587" lon="17.7262372">
        <ele>40.5128</ele>
        <time>2014-06-16T20:07:27Z</time>
      </trkpt>
      <trkpt lat="59.9515375" lon="17.7262751">
        <ele>40.5128</ele>
        <time>2014-06-16T20:07:28Z</time>
      </trkpt>
      <trkpt lat="59.9515198" lon="17.7263191">
        <ele>40.0321</ele>
        <time>2014-06-16T20:07:29Z</time>
      </trkpt>
      <trkpt lat="59.9515084" lon="17.7263756">
        <ele>40.0321</ele>
        <time>2014-06-16T20:07:30Z</time>
      </trkpt>
      <trkpt lat="59.9514987" lon="17.7264292">
        <ele>40.0321</ele>
        <time>2014-06-16T20:07:31Z</time>
      </trkpt>
      <trkpt lat="59.9514863" lon="17.7264793">
        <ele>39.5513</ele>
        <time>2014-06-16T20:07:32Z</time>
      </trkpt>
      <trkpt lat="59.9514695" lon="17.7265232">
        <ele>39.5513</ele>
        <time>2014-06-16T20:07:33Z</time>
      </trkpt>
      <trkpt lat="59.9514528" lon="17.7265595">
        <ele>39.5513</ele>
        <time>2014-06-16T20:07:34Z</time>
      </trkpt>
      <trkpt lat="59.9514364" lon="17.7265948">
        <ele>39.5513</ele>
        <time>2014-06-16T20:07:35Z</time>
      </trkpt>
      <trkpt lat="59.9514271" lon="17.7266398">
        <ele>39.5513</ele>
        <time>2014-06-16T20:07:36Z</time>
      </trkpt>
      <trkpt lat="59.951425" lon="17.7266879">
        <ele>39.5513</ele>
        <time>2014-06-16T20:07:37Z</time>
      </trkpt>
      <trkpt lat="59.9514287" lon="17.7267418">
        <ele>39.5513</ele>
        <time>2014-06-16T20:07:38Z</time>
      </trkpt>
      <trkpt lat="59.951435" lon="17.7267942">
        <ele>40.0321</ele>
        <time>2014-06-16T20:07:39Z</time>
      </trkpt>
      <trkpt lat="59.951439" lon="17.7268459">
        <ele>40.5128</ele>
        <time>2014-06-16T20:07:40Z</time>
      </trkpt>
      <trkpt lat="59.9514437" lon="17.7268939">
        <ele>40.9934</ele>
        <time>2014-06-16T20:07:41Z</time>
      </trkpt>
      <trkpt lat="59.951448" lon="17.7269387">
        <ele>41.474</ele>
        <time>2014-06-16T20:07:42Z</time>
      </trkpt>
      <trkpt lat="59.9514532" lon="17.7269842">
        <ele>41.474</ele>
        <time>2014-06-16T20:07:43Z</time>
      </trkpt>
      <trkpt lat="59.9514536" lon="17.727031">
        <ele>40.9934</ele>
        <time>2014-06-16T20:07:44Z</time>
      </trkpt>
      <trkpt lat="59.951453" lon="17.7270768">
        <ele>40.9934</ele>
        <time>2014-06-16T20:07:45Z</time>
      </trkpt>
      <trkpt lat="59.9514546" lon="17.7271175">
        <ele>40.9934</ele>
        <time>2014-06-16T20:07:46Z</time>
      </trkpt>
      <trkpt lat="59.9514562" lon="17.727168">
        <ele>41.474</ele>
        <time>2014-06-16T20:07:47Z</time>
      </trkpt>
      <trkpt lat="59.9514539" lon="17.7272182">
        <ele>40.9934</ele>
        <time>2014-06-16T20:07:48Z</time>
      </trkpt>
      <trkpt lat="59.9514501" lon="17.7272743">
        <ele>40.9934</ele>
        <time>2014-06-16T20:07:49Z</time>
      </trkpt>
      <trkpt lat="59.951456" lon="17.7273425">
        <ele>41.9547</ele>
        <time>2014-06-16T20:07:50Z</time>
      </trkpt>
      <trkpt lat="59.9514659" lon="17.7274153">
        <ele>42.4354</ele>
        <time>2014-06-16T20:07:51Z</time>
      </trkpt>
      <trkpt lat="59.9514791" lon="17.7274824">
        <ele>42.4354</ele>
        <time>2014-06-16T20:07:52Z</time>
      </trkpt>
      <trkpt lat="59.9514883" lon="17.7275519">
        <ele>42.4354</ele>
        <time>2014-06-16T20:07:53Z</time>
      </trkpt>
      <trkpt lat="59.9514979" lon="17.727616">
        <ele>42.4354</ele>
        <time>2014-06-16T20:07:54Z</time>
      </trkpt>
      <trkpt lat="59.951511" lon="17.7276669">
        <ele>42.4354</ele>
        <time>2014-06-16T20:07:55Z</time>
      </trkpt>
      <trkpt lat="59.9515239" lon="17.7277049">
        <ele>42.4354</ele>
        <time>2014-06-16T20:07:56Z</time>
      </trkpt>
      <trkpt lat="59.9515419" lon="17.7277414">
        <ele>42.4354</ele>
        <time>2014-06-16T20:07:57Z</time>
      </trkpt>
      <trkpt lat="59.9515649" lon="17.7277788">
        <ele>42.916</ele>
        <time>2014-06-16T20:07:58Z</time>
      </trkpt>
      <trkpt lat="59.9515856" lon="17.7278083">
        <ele>42.4354</ele>
        <time>2014-06-16T20:07:59Z</time>
      </trkpt>
      <trkpt lat="59.9516073" lon="17.7278294">
        <ele>42.4354</ele>
        <time>2014-06-16T20:08:00Z</time>
      </trkpt>
      <trkpt lat="59.9516328" lon="17.7278571">
        <ele>42.4354</ele>
        <time>2014-06-16T20:08:01Z</time>
      </trkpt>
      <trkpt lat="59.9516556" lon="17.7278731">
        <ele>41.9547</ele>
        <time>2014-06-16T20:08:02Z</time>
      </trkpt>
      <trkpt lat="59.9516771" lon="17.7278787">
        <ele>40.9934</ele>
        <time>2014-06-16T20:08:03Z</time>
      </trkpt>
      <trkpt lat="59.9517022" lon="17.727884">
        <ele>40.9934</ele>
        <time>2014-06-16T20:08:04Z</time>
      </trkpt>
      <trkpt lat="59.9517328" lon="17.7278888">
        <ele>41.474</ele>
        <time>2014-06-16T20:08:05Z</time>
      </trkpt>
      <trkpt lat="59.9517576" lon="17.7278831">
        <ele>42.4354</ele>
        <time>2014-06-16T20:08:06Z</time>
      </trkpt>
      <trkpt lat="59.9517876" lon="17.7278752">
        <ele>43.8773</ele>
        <time>2014-06-16T20:08:07Z</time>
      </trkpt>
      <trkpt lat="59.9518134" lon="17.7278694">
        <ele>44.358</ele>
        <time>2014-06-16T20:08:08Z</time>
      </trkpt>
      <trkpt lat="59.9518415" lon="17.7278544">
        <ele>44.358</ele>
        <time>2014-06-16T20:08:09Z</time>
      </trkpt>
      <trkpt lat="59.9518701" lon="17.7278359">
        <ele>43.8773</ele>
        <time>2014-06-16T20:08:10Z</time>
      </trkpt>
      <trkpt lat="59.9518927" lon="17.7278124">
        <ele>42.916</ele>
        <time>2014-06-16T20:08:11Z</time>
      </trkpt>
      <trkpt lat="59.9519176" lon="17.7277839">
        <ele>42.4354</ele>
        <time>2014-06-16T20:08:12Z</time>
      </trkpt>
      <trkpt lat="59.9519452" lon="17.7277555">
        <ele>42.916</ele>
        <time>2014-06-16T20:08:13Z</time>
      </trkpt>
      <trkpt lat="59.951972" lon="17.7277146">
        <ele>43.3966</ele>
        <time>2014-06-16T20:08:14Z</time>
      </trkpt>
      <trkpt lat="59.9519922" lon="17.7276768">
        <ele>43.8773</ele>
        <time>2014-06-16T20:08:15Z</time>
      </trkpt>
      <trkpt lat="59.9520054" lon="17.7276289">
        <ele>43.8773</ele>
        <time>2014-06-16T20:08:16Z</time>
      </trkpt>
      <trkpt lat="59.9520155" lon="17.7275726">
        <ele>44.358</ele>
        <time>2014-06-16T20:08:17Z</time>
      </trkpt>
      <trkpt lat="59.9520333" lon="17.7275173">
        <ele>45.7999</ele>
        <time>2014-06-16T20:08:18Z</time>
      </trkpt>
      <trkpt lat="59.9520512" lon="17.7274541">
        <ele>47.2418</ele>
        <time>2014-06-16T20:08:19Z</time>
      </trkpt>
      <trkpt lat="59.9520662" lon="17.7273922">
        <ele>48.2034</ele>
        <time>2014-06-16T20:08:20Z</time>
      </trkpt>
      <trkpt lat="59.95208" lon="17.7273387">
        <ele>48.684</ele>
        <time>2014-06-16T20:08:21Z</time>
      </trkpt>
      <trkpt lat="59.9520948" lon="17.7272889">
        <ele>48.684</ele>
        <time>2014-06-16T20:08:22Z</time>
      </trkpt>
      <trkpt lat="59.9521086" lon="17.727242">
        <ele>48.2034</ele>
        <time>2014-06-16T20:08:23Z</time>
      </trkpt>
      <trkpt lat="59.9521178" lon="17.7272024">
        <ele>47.7225</ele>
        <time>2014-06-16T20:08:24Z</time>
      </trkpt>
      <trkpt lat="59.9521321" lon="17.7271468">
        <ele>48.2034</ele>
        <time>2014-06-16T20:08:25Z</time>
      </trkpt>
      <trkpt lat="59.9521455" lon="17.7270911">
        <ele>48.2034</ele>
        <time>2014-06-16T20:08:26Z</time>
      </trkpt>
      <trkpt lat="59.9521544" lon="17.727039">
        <ele>49.1646</ele>
        <time>2014-06-16T20:08:27Z</time>
      </trkpt>
      <trkpt lat="59.9521551" lon="17.7269817">
        <ele>48.684</ele>
        <time>2014-06-16T20:08:28Z</time>
      </trkpt>
      <trkpt lat="59.9521651" lon="17.7269247">
        <ele>48.684</ele>
        <time>2014-06-16T20:08:29Z</time>
      </trkpt>
      <trkpt lat="59.9521855" lon="17.7268629">
        <ele>50.126</ele>
        <time>2014-06-16T20:08:30Z</time>
      </trkpt>
      <trkpt lat="59.9521865" lon="17.7267984">
        <ele>50.126</ele>
        <time>2014-06-16T20:08:31Z</time>
      </trkpt>
      <trkpt lat="59.9521864" lon="17.7267387">
        <ele>50.126</ele>
        <time>2014-06-16T20:08:32Z</time>
      </trkpt>
      <trkpt lat="59.9521938" lon="17.7266807">
        <ele>49.6453</ele>
        <time>2014-06-16T20:08:33Z</time>
      </trkpt>
      <trkpt lat="59.9522114" lon="17.7266158">
        <ele>50.6066</ele>
        <time>2014-06-16T20:08:34Z</time>
      </trkpt>
      <trkpt lat="59.9522185" lon="17.7265618">
        <ele>50.6066</ele>
        <time>2014-06-16T20:08:35Z</time>
      </trkpt>
      <trkpt lat="59.9522252" lon="17.7265147">
        <ele>50.6066</ele>
        <time>2014-06-16T20:08:36Z</time>
      </trkpt>
      <trkpt lat="59.9522351" lon="17.7264785">
        <ele>50.126</ele>
        <time>2014-06-16T20:08:37Z</time>
      </trkpt>
      <trkpt lat="59.9522523" lon="17.7264538">
        <ele>50.126</ele>
        <time>2014-06-16T20:08:38Z</time>
      </trkpt>
      <trkpt lat="59.9522704" lon="17.7264178">
        <ele>49.1646</ele>
        <time>2014-06-16T20:08:39Z</time>
      </trkpt>
      <trkpt lat="59.9522941" lon="17.7263673">
        <ele>49.1646</ele>
        <time>2014-06-16T20:08:40Z</time>
      </trkpt>
      <trkpt lat="59.9523114" lon="17.7263239">
        <ele>48.2034</ele>
        <time>2014-06-16T20:08:41Z</time>
      </trkpt>
      <trkpt lat="59.9523311" lon="17.7262874">
        <ele>48.684</ele>
        <time>2014-06-16T20:08:42Z</time>
      </trkpt>
      <trkpt lat="59.9523451" lon="17.7262547">
        <ele>48.2034</ele>
        <time>2014-06-16T20:08:43Z</time>
      </trkpt>
      <trkpt lat="59.9523617" lon="17.7262252">
        <ele>47.7225</ele>
        <time>2014-06-16T20:08:44Z</time>
      </trkpt>
      <trkpt lat="59.9523754" lon="17.7261922">
        <ele>47.7225</ele>
        <time>2014-06-16T20:08:45Z</time>
      </trkpt>
      <trkpt lat="59.9523928" lon="17.7261585">
        <ele>47.7225</ele>
        <time>2014-06-16T20:08:46Z</time>
      </trkpt>
      <trkpt lat="59.9524098" lon="17.7261219">
        <ele>46.7612</ele>
        <time>2014-06-16T20:08:47Z</time>
      </trkpt>
      <trkpt lat="59.952433" lon="17.726084">
        <ele>46.7612</ele>
        <time>2014-06-16T20:08:48Z</time>
      </trkpt>
      <trkpt lat="59.9524606" lon="17.7260444">
        <ele>46.2806</ele>
        <time>2014-06-16T20:08:49Z</time>
      </trkpt>
      <trkpt lat="59.9524891" lon="17.7260003">
        <ele>45.3192</ele>
        <time>2014-06-16T20:08:50Z</time>
      </trkpt>
      <trkpt lat="59.952506" lon="17.7259627">
        <ele>44.358</ele>
        <time>2014-06-16T20:08:51Z</time>
      </trkpt>
      <trkpt lat="59.9525251" lon="17.7259249">
        <ele>44.358</ele>
        <time>2014-06-16T20:08:52Z</time>
      </trkpt>
      <trkpt lat="59.9525412" lon="17.7258861">
        <ele>43.3966</ele>
        <time>2014-06-16T20:08:53Z</time>
      </trkpt>
      <trkpt lat="59.9525615" lon="17.7258452">
        <ele>42.916</ele>
        <time>2014-06-16T20:08:54Z</time>
      </trkpt>
      <trkpt lat="59.9525756" lon="17.7258093">
        <ele>41.9547</ele>
        <time>2014-06-16T20:08:55Z</time>
      </trkpt>
      <trkpt lat="59.9525897" lon="17.7257708">
        <ele>41.474</ele>
        <time>2014-06-16T20:08:56Z</time>
      </trkpt>
      <trkpt lat="59.9526081" lon="17.7257326">
        <ele>40.5128</ele>
        <time>2014-06-16T20:08:57Z</time>
      </trkpt>
      <trkpt lat="59.9526292" lon="17.7256969">
        <ele>40.9934</ele>
        <time>2014-06-16T20:08:58Z</time>
      </trkpt>
      <trkpt lat="59.9526461" lon="17.7256664">
        <ele>40.0321</ele>
        <time>2014-06-16T20:08:59Z</time>
      </trkpt>
      <trkpt lat="59.9526776" lon="17.725642">
        <ele>40.0321</ele>
        <time>2014-06-16T20:09:00Z</time>
      </trkpt>
      <trkpt lat="59.9527072" lon="17.7256171">
        <ele>38.5901</ele>
        <time>2014-06-16T20:09:01Z</time>
      </trkpt>
      <trkpt lat="59.9527331" lon="17.7255866">
        <ele>38.1094</ele>
        <time>2014-06-16T20:09:02Z</time>
      </trkpt>
      <trkpt lat="59.9527604" lon="17.7255552">
        <ele>37.6287</ele>
        <time>2014-06-16T20:09:03Z</time>
      </trkpt>
      <trkpt lat="59.9527863" lon="17.7255232">
        <ele>37.1481</ele>
        <time>2014-06-16T20:09:04Z</time>
      </trkpt>
      <trkpt lat="59.9528091" lon="17.7254913">
        <ele>36.6675</ele>
        <time>2014-06-16T20:09:05Z</time>
      </trkpt>
      <trkpt lat="59.9528258" lon="17.7254544">
        <ele>36.6675</ele>
        <time>2014-06-16T20:09:06Z</time>
      </trkpt>
      <trkpt lat="59.952843" lon="17.725409">
        <ele>36.6675</ele>
        <time>2014-06-16T20:09:07Z</time>
      </trkpt>
      <trkpt lat="59.9528637" lon="17.7253647">
        <ele>36.6675</ele>
        <time>2014-06-16T20:09:08Z</time>
      </trkpt>
      <trkpt lat="59.9528833" lon="17.725324">
        <ele>36.6675</ele>
        <time>2014-06-16T20:09:09Z</time>
      </trkpt>
      <trkpt lat="59.9529098" lon="17.7252899">
        <ele>36.1868</ele>
        <time>2014-06-16T20:09:10Z</time>
      </trkpt>
      <trkpt lat="59.9529366" lon="17.7252442">
        <ele>37.1481</ele>
        <time>2014-06-16T20:09:11Z</time>
      </trkpt>
      <trkpt lat="59.9529535" lon="17.7252093">
        <ele>37.1481</ele>
        <time>2014-06-16T20:09:12Z</time>
      </trkpt>
      <trkpt lat="59.9529683" lon="17.7251775">
        <ele>36.1868</ele>
        <time>2014-06-16T20:09:13Z</time>
      </trkpt>
      <trkpt lat="59.9529914" lon="17.7251437">
        <ele>36.6675</ele>
        <time>2014-06-16T20:09:14Z</time>
      </trkpt>
      <trkpt lat="59.9530174" lon="17.7251047">
        <ele>36.1868</ele>
        <time>2014-06-16T20:09:15Z</time>
      </trkpt>
      <trkpt lat="59.9530401" lon="17.725062">
        <ele>36.1868</ele>
        <time>2014-06-16T20:09:16Z</time>
      </trkpt>
      <trkpt lat="59.953059" lon="17.7250335">
        <ele>36.6675</ele>
        <time>2014-06-16T20:09:17Z</time>
      </trkpt>
      <trkpt lat="59.9530822" lon="17.7250038">
        <ele>38.1094</ele>
        <time>2014-06-16T20:09:18Z</time>
      </trkpt>
      <trkpt lat="59.9531014" lon="17.7249669">
        <ele>38.5901</ele>
        <time>2014-06-16T20:09:19Z</time>
      </trkpt>
      <trkpt lat="59.9531136" lon="17.7249224">
        <ele>38.5901</ele>
        <time>2014-06-16T20:09:20Z</time>
      </trkpt>
      <trkpt lat="59.9531299" lon="17.7248784">
        <ele>38.1094</ele>
        <time>2014-06-16T20:09:21Z</time>
      </trkpt>
      <trkpt lat="59.9531465" lon="17.7248318">
        <ele>38.1094</ele>
        <time>2014-06-16T20:09:22Z</time>
      </trkpt>
      <trkpt lat="59.953162" lon="17.7247926">
        <ele>38.1094</ele>
        <time>2014-06-16T20:09:23Z</time>
      </trkpt>
      <trkpt lat="59.9531759" lon="17.7247567">
        <ele>37.1481</ele>
        <time>2014-06-16T20:09:24Z</time>
      </trkpt>
      <trkpt lat="59.9531916" lon="17.7247322">
        <ele>37.6287</ele>
        <time>2014-06-16T20:09:25Z</time>
      </trkpt>
      <trkpt lat="59.9532058" lon="17.7246992">
        <ele>37.1481</ele>
        <time>2014-06-16T20:09:26Z</time>
      </trkpt>
      <trkpt lat="59.9532248" lon="17.7246683">
        <ele>37.1481</ele>
        <time>2014-06-16T20:09:27Z</time>
      </trkpt>
      <trkpt lat="59.9532453" lon="17.7246382">
        <ele>38.1094</ele>
        <time>2014-06-16T20:09:28Z</time>
      </trkpt>
      <trkpt lat="59.9532686" lon="17.7246085">
        <ele>39.0707</ele>
        <time>2014-06-16T20:09:29Z</time>
      </trkpt>
      <trkpt lat="59.9532887" lon="17.7245723">
        <ele>39.0707</ele>
        <time>2014-06-16T20:09:30Z</time>
      </trkpt>
      <trkpt lat="59.9533066" lon="17.7245313">
        <ele>39.0707</ele>
        <time>2014-06-16T20:09:31Z</time>
      </trkpt>
      <trkpt lat="59.9533232" lon="17.724491">
        <ele>38.5901</ele>
        <time>2014-06-16T20:09:32Z</time>
      </trkpt>
      <trkpt lat="59.9533418" lon="17.7244538">
        <ele>38.5901</ele>
        <time>2014-06-16T20:09:33Z</time>
      </trkpt>
      <trkpt lat="59.9533547" lon="17.7244175">
        <ele>39.5513</ele>
        <time>2014-06-16T20:09:34Z</time>
      </trkpt>
      <trkpt lat="59.953368" lon="17.7243743">
        <ele>40.0321</ele>
        <time>2014-06-16T20:09:35Z</time>
      </trkpt>
      <trkpt lat="59.9533826" lon="17.7243368">
        <ele>40.0321</ele>
        <time>2014-06-16T20:09:36Z</time>
      </trkpt>
      <trkpt lat="59.9533952" lon="17.7243023">
        <ele>40.0321</ele>
        <time>2014-06-16T20:09:37Z</time>
      </trkpt>
      <trkpt lat="59.9534138" lon="17.7242688">
        <ele>40.5128</ele>
        <time>2014-06-16T20:09:38Z</time>
      </trkpt>
      <trkpt lat="59.9534313" lon="17.7242334">
        <ele>41.9547</ele>
        <time>2014-06-16T20:09:39Z</time>
      </trkpt>
      <trkpt lat="59.9534547" lon="17.7242025">
        <ele>42.916</ele>
        <time>2014-06-16T20:09:40Z</time>
      </trkpt>
      <trkpt lat="59.9534722" lon="17.7241679">
        <ele>43.8773</ele>
        <time>2014-06-16T20:09:41Z</time>
      </trkpt>
      <trkpt lat="59.9534981" lon="17.7241362">
        <ele>45.7999</ele>
        <time>2014-06-16T20:09:42Z</time>
      </trkpt>
      <trkpt lat="59.9535241" lon="17.7240983">
        <ele>46.7612</ele>
        <time>2014-06-16T20:09:43Z</time>
      </trkpt>
      <trkpt lat="59.9535469" lon="17.7240585">
        <ele>47.2418</ele>
        <time>2014-06-16T20:09:44Z</time>
      </trkpt>
      <trkpt lat="59.9535654" lon="17.7240243">
        <ele>48.2034</ele>
        <time>2014-06-16T20:09:45Z</time>
      </trkpt>
      <trkpt lat="59.9535804" lon="17.7239844">
        <ele>48.2034</ele>
        <time>2014-06-16T20:09:46Z</time>
      </trkpt>
      <trkpt lat="59.953596" lon="17.7239414">
        <ele>48.684</ele>
        <time>2014-06-16T20:09:47Z</time>
      </trkpt>
      <trkpt lat="59.9536094" lon="17.7239024">
        <ele>48.684</ele>
        <time>2014-06-16T20:09:48Z</time>
      </trkpt>
      <trkpt lat="59.9536223" lon="17.7238683">
        <ele>48.2034</ele>
        <time>2014-06-16T20:09:49Z</time>
      </trkpt>
      <trkpt lat="59.9536448" lon="17.7238309">
        <ele>48.2034</ele>
        <time>2014-06-16T20:09:50Z</time>
      </trkpt>
      <trkpt lat="59.9536706" lon="17.7237948">
        <ele>48.2034</ele>
        <time>2014-06-16T20:09:51Z</time>
      </trkpt>
      <trkpt lat="59.9536955" lon="17.7237639">
        <ele>48.2034</ele>
        <time>2014-06-16T20:09:52Z</time>
      </trkpt>
      <trkpt lat="59.9537191" lon="17.7237283">
        <ele>47.7225</ele>
        <time>2014-06-16T20:09:53Z</time>
      </trkpt>
      <trkpt lat="59.9537397" lon="17.7236937">
        <ele>47.2418</ele>
        <time>2014-06-16T20:09:54Z</time>
      </trkpt>
      <trkpt lat="59.9537577" lon="17.7236662">
        <ele>46.2806</ele>
        <time>2014-06-16T20:09:55Z</time>
      </trkpt>
      <trkpt lat="59.9537761" lon="17.7236379">
        <ele>45.3192</ele>
        <time>2014-06-16T20:09:56Z</time>
      </trkpt>
      <trkpt lat="59.9538039" lon="17.7236209">
        <ele>45.7999</ele>
        <time>2014-06-16T20:09:57Z</time>
      </trkpt>
      <trkpt lat="59.9538277" lon="17.7235933">
        <ele>45.3192</ele>
        <time>2014-06-16T20:09:58Z</time>
      </trkpt>
      <trkpt lat="59.9538535" lon="17.7235659">
        <ele>45.3192</ele>
        <time>2014-06-16T20:09:59Z</time>
      </trkpt>
      <trkpt lat="59.9538802" lon="17.7235441">
        <ele>45.7999</ele>
        <time>2014-06-16T20:10:00Z</time>
      </trkpt>
      <trkpt lat="59.9539011" lon="17.7235219">
        <ele>45.7999</ele>
        <time>2014-06-16T20:10:01Z</time>
      </trkpt>
      <trkpt lat="59.9539229" lon="17.7235042">
        <ele>46.2806</ele>
        <time>2014-06-16T20:10:02Z</time>
      </trkpt>
      <trkpt lat="59.9539462" lon="17.7234781">
        <ele>46.7612</ele>
        <time>2014-06-16T20:10:03Z</time>
      </trkpt>
      <trkpt lat="59.953969" lon="17.7234567">
        <ele>46.2806</ele>
        <time>2014-06-16T20:10:04Z</time>
      </trkpt>
      <trkpt lat="59.9539926" lon="17.7234386">
        <ele>45.3192</ele>
        <time>2014-06-16T20:10:05Z</time>
      </trkpt>
      <trkpt lat="59.9540198" lon="17.7234192">
        <ele>45.3192</ele>
        <time>2014-06-16T20:10:06Z</time>
      </trkpt>
      <trkpt lat="59.9540442" lon="17.7233965">
        <ele>45.7999</ele>
        <time>2014-06-16T20:10:07Z</time>
      </trkpt>
      <trkpt lat="59.9540685" lon="17.7233751">
        <ele>46.7612</ele>
        <time>2014-06-16T20:10:08Z</time>
      </trkpt>
      <trkpt lat="59.9540886" lon="17.7233481">
        <ele>46.2806</ele>
        <time>2014-06-16T20:10:09Z</time>
      </trkpt>
      <trkpt lat="59.9541104" lon="17.7233327">
        <ele>46.7612</ele>
        <time>2014-06-16T20:10:10Z</time>
      </trkpt>
      <trkpt lat="59.954131" lon="17.7233222">
        <ele>47.2418</ele>
        <time>2014-06-16T20:10:11Z</time>
      </trkpt>
      <trkpt lat="59.9541585" lon="17.7233141">
        <ele>48.2034</ele>
        <time>2014-06-16T20:10:12Z</time>
      </trkpt>
      <trkpt lat="59.9541917" lon="17.7233046">
        <ele>49.6453</ele>
        <time>2014-06-16T20:10:13Z</time>
      </trkpt>
      <trkpt lat="59.9542197" lon="17.723283">
        <ele>50.6066</ele>
        <time>2014-06-16T20:10:14Z</time>
      </trkpt>
      <trkpt lat="59.954258" lon="17.7232785">
        <ele>52.5292</ele>
        <time>2014-06-16T20:10:15Z</time>
      </trkpt>
      <trkpt lat="59.9542918" lon="17.7232756">
        <ele>53.9712</ele>
        <time>2014-06-16T20:10:16Z</time>
      </trkpt>
      <trkpt lat="59.9543217" lon="17.7232763">
        <ele>54.9324</ele>
        <time>2014-06-16T20:10:17Z</time>
      </trkpt>
      <trkpt lat="59.9543627" lon="17.7232709">
        <ele>58.2971</ele>
        <time>2014-06-16T20:10:18Z</time>
      </trkpt>
      <trkpt lat="59.9543969" lon="17.7232831">
        <ele>59.7391</ele>
        <time>2014-06-16T20:10:19Z</time>
      </trkpt>
      <trkpt lat="59.9544332" lon="17.7232753">
        <ele>62.6229</ele>
        <time>2014-06-16T20:10:20Z</time>
      </trkpt>
      <trkpt lat="59.9544679" lon="17.7232707">
        <ele>64.5457</ele>
        <time>2014-06-16T20:10:21Z</time>
      </trkpt>
      <trkpt lat="59.954499" lon="17.7232828">
        <ele>65.9877</ele>
        <time>2014-06-16T20:10:22Z</time>
      </trkpt>
      <trkpt lat="59.9545435" lon="17.7232904">
        <ele>68.8716</ele>
        <time>2014-06-16T20:10:23Z</time>
      </trkpt>
      <trkpt lat="59.9545799" lon="17.7233079">
        <ele>70.7942</ele>
        <time>2014-06-16T20:10:24Z</time>
      </trkpt>
      <trkpt lat="59.9546112" lon="17.7233318">
        <ele>72.2362</ele>
        <time>2014-06-16T20:10:25Z</time>
      </trkpt>
      <trkpt lat="59.954631" lon="17.723355">
        <ele>71.2749</ele>
        <time>2014-06-16T20:10:26Z</time>
      </trkpt>
      <trkpt lat="59.9546589" lon="17.7233679">
        <ele>71.7555</ele>
        <time>2014-06-16T20:10:27Z</time>
      </trkpt>
      <trkpt lat="59.9546897" lon="17.7233846">
        <ele>73.1976</ele>
        <time>2014-06-16T20:10:28Z</time>
      </trkpt>
      <trkpt lat="59.9547127" lon="17.7234">
        <ele>73.6782</ele>
        <time>2014-06-16T20:10:29Z</time>
      </trkpt>
      <trkpt lat="59.954735" lon="17.723413">
        <ele>74.1588</ele>
        <time>2014-06-16T20:10:30Z</time>
      </trkpt>
      <trkpt lat="59.9547636" lon="17.7234386">
        <ele>76.0814</ele>
        <time>2014-06-16T20:10:31Z</time>
      </trkpt>
      <trkpt lat="59.9547962" lon="17.7234586">
        <ele>77.5234</ele>
        <time>2014-06-16T20:10:32Z</time>
      </trkpt>
      <trkpt lat="59.9548274" lon="17.7234886">
        <ele>78.4847</ele>
        <time>2014-06-16T20:10:33Z</time>
      </trkpt>
      <trkpt lat="59.9548518" lon="17.7235142">
        <ele>78.004</ele>
        <time>2014-06-16T20:10:34Z</time>
      </trkpt>
      <trkpt lat="59.9548828" lon="17.7235441">
        <ele>78.9655</ele>
        <time>2014-06-16T20:10:35Z</time>
      </trkpt>
      <trkpt lat="59.9549128" lon="17.7235732">
        <ele>78.9655</ele>
        <time>2014-06-16T20:10:36Z</time>
      </trkpt>
      <trkpt lat="59.9549403" lon="17.7235923">
        <ele>78.4847</ele>
        <time>2014-06-16T20:10:37Z</time>
      </trkpt>
      <trkpt lat="59.9549689" lon="17.7235989">
        <ele>79.446</ele>
        <time>2014-06-16T20:10:38Z</time>
      </trkpt>
      <trkpt lat="59.9549974" lon="17.7236006">
        <ele>79.446</ele>
        <time>2014-06-16T20:10:39Z</time>
      </trkpt>
      <trkpt lat="59.9550259" lon="17.7236146">
        <ele>79.446</ele>
        <time>2014-06-16T20:10:40Z</time>
      </trkpt>
      <trkpt lat="59.9550649" lon="17.7236167">
        <ele>81.3688</ele>
        <time>2014-06-16T20:10:41Z</time>
      </trkpt>
      <trkpt lat="59.9550994" lon="17.7236154">
        <ele>82.3301</ele>
        <time>2014-06-16T20:10:42Z</time>
      </trkpt>
      <trkpt lat="59.9551162" lon="17.723612">
        <ele>80.4075</ele>
        <time>2014-06-16T20:10:43Z</time>
      </trkpt>
      <trkpt lat="59.9551264" lon="17.7236192">
        <ele>77.5234</ele>
        <time>2014-06-16T20:10:44Z</time>
      </trkpt>
      <trkpt lat="59.9551402" lon="17.7236204">
        <ele>75.1202</ele>
        <time>2014-06-16T20:10:45Z</time>
      </trkpt>
      <trkpt lat="59.9551531" lon="17.7236166">
        <ele>72.2362</ele>
        <time>2014-06-16T20:10:46Z</time>
      </trkpt>
      <trkpt lat="59.9551621" lon="17.7236097">
        <ele>68.8716</ele>
        <time>2014-06-16T20:10:47Z</time>
      </trkpt>
      <trkpt lat="59.955176" lon="17.7235993">
        <ele>65.9877</ele>
        <time>2014-06-16T20:10:48Z</time>
      </trkpt>
      <trkpt lat="59.9551937" lon="17.7235841">
        <ele>64.5457</ele>
        <time>2014-06-16T20:10:49Z</time>
      </trkpt>
      <trkpt lat="59.9552058" lon="17.7235618">
        <ele>61.181</ele>
        <time>2014-06-16T20:10:50Z</time>
      </trkpt>
      <trkpt lat="59.9552242" lon="17.7235422">
        <ele>58.7777</ele>
        <time>2014-06-16T20:10:51Z</time>
      </trkpt>
      <trkpt lat="59.9552484" lon="17.7235194">
        <ele>57.8165</ele>
        <time>2014-06-16T20:10:52Z</time>
      </trkpt>
      <trkpt lat="59.9552758" lon="17.723498">
        <ele>57.3358</ele>
        <time>2014-06-16T20:10:53Z</time>
      </trkpt>
      <trkpt lat="59.9552981" lon="17.7234696">
        <ele>55.8938</ele>
        <time>2014-06-16T20:10:54Z</time>
      </trkpt>
      <trkpt lat="59.9553189" lon="17.7234468">
        <ele>54.4518</ele>
        <time>2014-06-16T20:10:55Z</time>
      </trkpt>
      <trkpt lat="59.9553542" lon="17.723424">
        <ele>56.3745</ele>
        <time>2014-06-16T20:10:56Z</time>
      </trkpt>
      <trkpt lat="59.9553879" lon="17.7234094">
        <ele>56.8551</ele>
        <time>2014-06-16T20:10:57Z</time>
      </trkpt>
      <trkpt lat="59.955424" lon="17.7234033">
        <ele>57.8165</ele>
        <time>2014-06-16T20:10:58Z</time>
      </trkpt>
      <trkpt lat="59.9554495" lon="17.7233997">
        <ele>57.3358</ele>
        <time>2014-06-16T20:10:59Z</time>
      </trkpt>
      <trkpt lat="59.95548" lon="17.7234022">
        <ele>57.3358</ele>
        <time>2014-06-16T20:11:00Z</time>
      </trkpt>
      <trkpt lat="59.9555131" lon="17.7234063">
        <ele>57.3358</ele>
        <time>2014-06-16T20:11:01Z</time>
      </trkpt>
      <trkpt lat="59.9555485" lon="17.7234163">
        <ele>58.7777</ele>
        <time>2014-06-16T20:11:02Z</time>
      </trkpt>
      <trkpt lat="59.9555786" lon="17.7234312">
        <ele>59.2584</ele>
        <time>2014-06-16T20:11:03Z</time>
      </trkpt>
      <trkpt lat="59.9556022" lon="17.7234602">
        <ele>59.7391</ele>
        <time>2014-06-16T20:11:04Z</time>
      </trkpt>
      <trkpt lat="59.9556252" lon="17.7234776">
        <ele>59.7391</ele>
        <time>2014-06-16T20:11:05Z</time>
      </trkpt>
      <trkpt lat="59.9556417" lon="17.7234869">
        <ele>59.2584</ele>
        <time>2014-06-16T20:11:06Z</time>
      </trkpt>
      <trkpt lat="59.9556692" lon="17.7235044">
        <ele>60.2197</ele>
        <time>2014-06-16T20:11:07Z</time>
      </trkpt>
      <trkpt lat="59.9557044" lon="17.723525">
        <ele>62.1423</ele>
        <time>2014-06-16T20:11:08Z</time>
      </trkpt>
      <trkpt lat="59.9557437" lon="17.7235427">
        <ele>64.0651</ele>
        <time>2014-06-16T20:11:09Z</time>
      </trkpt>
      <trkpt lat="59.9557794" lon="17.7235504">
        <ele>65.5071</ele>
        <time>2014-06-16T20:11:10Z</time>
      </trkpt>
      <trkpt lat="59.9558034" lon="17.7235649">
        <ele>65.9877</ele>
        <time>2014-06-16T20:11:11Z</time>
      </trkpt>
      <trkpt lat="59.9558205" lon="17.7235814">
        <ele>65.5071</ele>
        <time>2014-06-16T20:11:12Z</time>
      </trkpt>
      <trkpt lat="59.9558457" lon="17.7236002">
        <ele>66.4683</ele>
        <time>2014-06-16T20:11:13Z</time>
      </trkpt>
      <trkpt lat="59.9558752" lon="17.723628">
        <ele>66.949</ele>
        <time>2014-06-16T20:11:14Z</time>
      </trkpt>
      <trkpt lat="59.9559074" lon="17.7236537">
        <ele>68.3909</ele>
        <time>2014-06-16T20:11:15Z</time>
      </trkpt>
      <trkpt lat="59.9559288" lon="17.7236678">
        <ele>68.3909</ele>
        <time>2014-06-16T20:11:16Z</time>
      </trkpt>
      <trkpt lat="59.9559445" lon="17.7236737">
        <ele>68.3909</ele>
        <time>2014-06-16T20:11:17Z</time>
      </trkpt>
      <trkpt lat="59.9559606" lon="17.7236719">
        <ele>67.4297</ele>
        <time>2014-06-16T20:11:18Z</time>
      </trkpt>
      <trkpt lat="59.9559768" lon="17.7236533">
        <ele>66.4683</ele>
        <time>2014-06-16T20:11:19Z</time>
      </trkpt>
      <trkpt lat="59.955994" lon="17.7236207">
        <ele>65.0264</ele>
        <time>2014-06-16T20:11:20Z</time>
      </trkpt>
      <trkpt lat="59.9560064" lon="17.7235825">
        <ele>63.1036</ele>
        <time>2014-06-16T20:11:21Z</time>
      </trkpt>
      <trkpt lat="59.9560144" lon="17.7235513">
        <ele>60.7003</ele>
        <time>2014-06-16T20:11:22Z</time>
      </trkpt>
      <trkpt lat="59.9560188" lon="17.7235172">
        <ele>58.7777</ele>
        <time>2014-06-16T20:11:23Z</time>
      </trkpt>
      <trkpt lat="59.9560235" lon="17.723484">
        <ele>57.8165</ele>
        <time>2014-06-16T20:11:24Z</time>
      </trkpt>
      <trkpt lat="59.9560375" lon="17.7234452">
        <ele>57.3358</ele>
        <time>2014-06-16T20:11:25Z</time>
      </trkpt>
      <trkpt lat="59.9560583" lon="17.7233954">
        <ele>57.3358</ele>
        <time>2014-06-16T20:11:26Z</time>
      </trkpt>
      <trkpt lat="59.9560789" lon="17.7233526">
        <ele>57.3358</ele>
        <time>2014-06-16T20:11:27Z</time>
      </trkpt>
      <trkpt lat="59.9560949" lon="17.7233047">
        <ele>57.3358</ele>
        <time>2014-06-16T20:11:28Z</time>
      </trkpt>
      <trkpt lat="59.9561139" lon="17.7232508">
        <ele>57.8165</ele>
        <time>2014-06-16T20:11:29Z</time>
      </trkpt>
      <trkpt lat="59.9561255" lon="17.7232038">
        <ele>57.3358</ele>
        <time>2014-06-16T20:11:30Z</time>
      </trkpt>
      <trkpt lat="59.95614" lon="17.7231654">
        <ele>57.8165</ele>
        <time>2014-06-16T20:11:31Z</time>
      </trkpt>
      <trkpt lat="59.956141" lon="17.7231147">
        <ele>56.8551</ele>
        <time>2014-06-16T20:11:32Z</time>
      </trkpt>
      <trkpt lat="59.9561318" lon="17.7230541">
        <ele>55.8938</ele>
        <time>2014-06-16T20:11:33Z</time>
      </trkpt>
      <trkpt lat="59.9561191" lon="17.7230005">
        <ele>54.9324</ele>
        <time>2014-06-16T20:11:34Z</time>
      </trkpt>
      <trkpt lat="59.9561103" lon="17.7229503">
        <ele>54.9324</ele>
        <time>2014-06-16T20:11:35Z</time>
      </trkpt>
      <trkpt lat="59.9560955" lon="17.7229016">
        <ele>54.4518</ele>
        <time>2014-06-16T20:11:36Z</time>
      </trkpt>
      <trkpt lat="59.9560829" lon="17.7228566">
        <ele>54.4518</ele>
        <time>2014-06-16T20:11:37Z</time>
      </trkpt>
      <trkpt lat="59.9560681" lon="17.7228127">
        <ele>53.9712</ele>
        <time>2014-06-16T20:11:38Z</time>
      </trkpt>
      <trkpt lat="59.9560585" lon="17.7227721">
        <ele>53.9712</ele>
        <time>2014-06-16T20:11:39Z</time>
      </trkpt>
      <trkpt lat="59.95605" lon="17.722724">
        <ele>53.9712</ele>
        <time>2014-06-16T20:11:40Z</time>
      </trkpt>
      <trkpt lat="59.9560412" lon="17.7226729">
        <ele>53.4905</ele>
        <time>2014-06-16T20:11:41Z</time>
      </trkpt>
      <trkpt lat="59.9560467" lon="17.722621">
        <ele>53.0098</ele>
        <time>2014-06-16T20:11:42Z</time>
      </trkpt>
      <trkpt lat="59.9560422" lon="17.7225703">
        <ele>53.0098</ele>
        <time>2014-06-16T20:11:43Z</time>
      </trkpt>
      <trkpt lat="59.9560258" lon="17.7225175">
        <ele>52.5292</ele>
        <time>2014-06-16T20:11:44Z</time>
      </trkpt>
      <trkpt lat="59.9560192" lon="17.7224598">
        <ele>51.5679</ele>
        <time>2014-06-16T20:11:45Z</time>
      </trkpt>
      <trkpt lat="59.9560082" lon="17.7223983">
        <ele>52.0486</ele>
        <time>2014-06-16T20:11:46Z</time>
      </trkpt>
      <trkpt lat="59.9559991" lon="17.7223381">
        <ele>51.5679</ele>
        <time>2014-06-16T20:11:47Z</time>
      </trkpt>
      <trkpt lat="59.9559889" lon="17.7222777">
        <ele>50.6066</ele>
        <time>2014-06-16T20:11:48Z</time>
      </trkpt>
      <trkpt lat="59.955981" lon="17.7222258">
        <ele>50.126</ele>
        <time>2014-06-16T20:11:49Z</time>
      </trkpt>
      <trkpt lat="59.9559717" lon="17.7221771">
        <ele>50.126</ele>
        <time>2014-06-16T20:11:50Z</time>
      </trkpt>
      <trkpt lat="59.9559609" lon="17.7221308">
        <ele>49.6453</ele>
        <time>2014-06-16T20:11:51Z</time>
      </trkpt>
      <trkpt lat="59.9559577" lon="17.7220774">
        <ele>49.6453</ele>
        <time>2014-06-16T20:11:52Z</time>
      </trkpt>
      <trkpt lat="59.9559562" lon="17.7220262">
        <ele>50.126</ele>
        <time>2014-06-16T20:11:53Z</time>
      </trkpt>
      <trkpt lat="59.9559613" lon="17.7219677">
        <ele>50.6066</ele>
        <time>2014-06-16T20:11:54Z</time>
      </trkpt>
      <trkpt lat="59.9559756" lon="17.7219003">
        <ele>52.5292</ele>
        <time>2014-06-16T20:11:55Z</time>
      </trkpt>
      <trkpt lat="59.9559778" lon="17.721843">
        <ele>52.0486</ele>
        <time>2014-06-16T20:11:56Z</time>
      </trkpt>
      <trkpt lat="59.9559881" lon="17.721786">
        <ele>51.5679</ele>
        <time>2014-06-16T20:11:57Z</time>
      </trkpt>
      <trkpt lat="59.9559965" lon="17.7217244">
        <ele>51.5679</ele>
        <time>2014-06-16T20:11:58Z</time>
      </trkpt>
      <trkpt lat="59.9560012" lon="17.7216736">
        <ele>52.0486</ele>
        <time>2014-06-16T20:11:59Z</time>
      </trkpt>
      <trkpt lat="59.9560126" lon="17.7216259">
        <ele>53.0098</ele>
        <time>2014-06-16T20:12:00Z</time>
      </trkpt>
      <trkpt lat="59.9560281" lon="17.7215684">
        <ele>54.4518</ele>
        <time>2014-06-16T20:12:01Z</time>
      </trkpt>
      <trkpt lat="59.9560358" lon="17.7215094">
        <ele>54.4518</ele>
        <time>2014-06-16T20:12:02Z</time>
      </trkpt>
      <trkpt lat="59.9560286" lon="17.7214581">
        <ele>53.4905</ele>
        <time>2014-06-16T20:12:03Z</time>
      </trkpt>
      <trkpt lat="59.9560172" lon="17.7214026">
        <ele>53.9712</ele>
        <time>2014-06-16T20:12:04Z</time>
      </trkpt>
      <trkpt lat="59.9560038" lon="17.7213518">
        <ele>53.9712</ele>
        <time>2014-06-16T20:12:05Z</time>
      </trkpt>
      <trkpt lat="59.9559878" lon="17.7213099">
        <ele>53.4905</ele>
        <time>2014-06-16T20:12:06Z</time>
      </trkpt>
      <trkpt lat="59.9559619" lon="17.7212764">
        <ele>53.0098</ele>
        <time>2014-06-16T20:12:07Z</time>
      </trkpt>
      <trkpt lat="59.9559316" lon="17.7212554">
        <ele>53.0098</ele>
        <time>2014-06-16T20:12:08Z</time>
      </trkpt>
      <trkpt lat="59.9558955" lon="17.7212571">
        <ele>52.5292</ele>
        <time>2014-06-16T20:12:09Z</time>
      </trkpt>
      <trkpt lat="59.9558582" lon="17.7212642">
        <ele>51.5679</ele>
        <time>2014-06-16T20:12:10Z</time>
      </trkpt>
      <trkpt lat="59.9558271" lon="17.7212701">
        <ele>52.0486</ele>
        <time>2014-06-16T20:12:11Z</time>
      </trkpt>
      <trkpt lat="59.9557969" lon="17.7212758">
        <ele>51.5679</ele>
        <time>2014-06-16T20:12:12Z</time>
      </trkpt>
      <trkpt lat="59.955764" lon="17.7212753">
        <ele>51.5679</ele>
        <time>2014-06-16T20:12:13Z</time>
      </trkpt>
      <trkpt lat="59.9557321" lon="17.7212778">
        <ele>51.0872</ele>
        <time>2014-06-16T20:12:14Z</time>
      </trkpt>
      <trkpt lat="59.9557099" lon="17.7212872">
        <ele>52.0486</ele>
        <time>2014-06-16T20:12:15Z</time>
      </trkpt>
      <trkpt lat="59.9556829" lon="17.721299">
        <ele>52.5292</ele>
        <time>2014-06-16T20:12:16Z</time>
      </trkpt>
      <trkpt lat="59.9556506" lon="17.7213118">
        <ele>53.4905</ele>
        <time>2014-06-16T20:12:17Z</time>
      </trkpt>
      <trkpt lat="59.955613" lon="17.7213208">
        <ele>53.9712</ele>
        <time>2014-06-16T20:12:18Z</time>
      </trkpt>
      <trkpt lat="59.9555914" lon="17.7213264">
        <ele>55.4131</ele>
        <time>2014-06-16T20:12:19Z</time>
      </trkpt>
      <trkpt lat="59.9555669" lon="17.7213338">
        <ele>56.3745</ele>
        <time>2014-06-16T20:12:20Z</time>
      </trkpt>
      <trkpt lat="59.9555422" lon="17.721355">
        <ele>56.3745</ele>
        <time>2014-06-16T20:12:21Z</time>
      </trkpt>
      <trkpt lat="59.9555189" lon="17.7213927">
        <ele>57.8165</ele>
        <time>2014-06-16T20:12:22Z</time>
      </trkpt>
      <trkpt lat="59.9554897" lon="17.7214151">
        <ele>58.7777</ele>
        <time>2014-06-16T20:12:23Z</time>
      </trkpt>
      <trkpt lat="59.9554737" lon="17.7214358">
        <ele>59.2584</ele>
        <time>2014-06-16T20:12:24Z</time>
      </trkpt>
      <trkpt lat="59.9554521" lon="17.7214406">
        <ele>60.2197</ele>
        <time>2014-06-16T20:12:25Z</time>
      </trkpt>
      <trkpt lat="59.9554277" lon="17.7214369">
        <ele>59.7391</ele>
        <time>2014-06-16T20:12:26Z</time>
      </trkpt>
      <trkpt lat="59.9554029" lon="17.7214375">
        <ele>59.7391</ele>
        <time>2014-06-16T20:12:27Z</time>
      </trkpt>
      <trkpt lat="59.9553791" lon="17.7214357">
        <ele>59.7391</ele>
        <time>2014-06-16T20:12:28Z</time>
      </trkpt>
      <trkpt lat="59.9553516" lon="17.7214232">
        <ele>58.7777</ele>
        <time>2014-06-16T20:12:29Z</time>
      </trkpt>
      <trkpt lat="59.9553301" lon="17.7214193">
        <ele>59.2584</ele>
        <time>2014-06-16T20:12:30Z</time>
      </trkpt>
      <trkpt lat="59.9553108" lon="17.7214225">
        <ele>59.7391</ele>
        <time>2014-06-16T20:12:31Z</time>
      </trkpt>
      <trkpt lat="59.9552909" lon="17.7214261">
        <ele>59.7391</ele>
        <time>2014-06-16T20:12:32Z</time>
      </trkpt>
      <trkpt lat="59.9552744" lon="17.7214394">
        <ele>60.2197</ele>
        <time>2014-06-16T20:12:33Z</time>
      </trkpt>
      <trkpt lat="59.9552589" lon="17.7214503">
        <ele>60.2197</ele>
        <time>2014-06-16T20:12:34Z</time>
      </trkpt>
      <trkpt lat="59.9552406" lon="17.7214522">
        <ele>60.2197</ele>
        <time>2014-06-16T20:12:35Z</time>
      </trkpt>
      <trkpt lat="59.9552203" lon="17.7214478">
        <ele>60.2197</ele>
        <time>2014-06-16T20:12:36Z</time>
      </trkpt>
      <trkpt lat="59.9551952" lon="17.7214418">
        <ele>59.7391</ele>
        <time>2014-06-16T20:12:37Z</time>
      </trkpt>
      <trkpt lat="59.9551704" lon="17.7214506">
        <ele>60.2197</ele>
        <time>2014-06-16T20:12:38Z</time>
      </trkpt>
      <trkpt lat="59.9551458" lon="17.7214586">
        <ele>59.7391</ele>
        <time>2014-06-16T20:12:39Z</time>
      </trkpt>
      <trkpt lat="59.9551211" lon="17.7214658">
        <ele>60.2197</ele>
        <time>2014-06-16T20:12:40Z</time>
      </trkpt>
      <trkpt lat="59.9551009" lon="17.721468">
        <ele>60.7003</ele>
        <time>2014-06-16T20:12:41Z</time>
      </trkpt>
      <trkpt lat="59.9550818" lon="17.7214608">
        <ele>60.7003</ele>
        <time>2014-06-16T20:12:42Z</time>
      </trkpt>
      <trkpt lat="59.9550559" lon="17.7214506">
        <ele>61.181</ele>
        <time>2014-06-16T20:12:43Z</time>
      </trkpt>
      <trkpt lat="59.9550251" lon="17.7214374">
        <ele>60.7003</ele>
        <time>2014-06-16T20:12:44Z</time>
      </trkpt>
      <trkpt lat="59.954995" lon="17.7214175">
        <ele>60.7003</ele>
        <time>2014-06-16T20:12:45Z</time>
      </trkpt>
      <trkpt lat="59.9549636" lon="17.7213974">
        <ele>60.2197</ele>
        <time>2014-06-16T20:12:46Z</time>
      </trkpt>
      <trkpt lat="59.9549376" lon="17.7213613">
        <ele>59.7391</ele>
        <time>2014-06-16T20:12:47Z</time>
      </trkpt>
      <trkpt lat="59.9549103" lon="17.7213127">
        <ele>59.7391</ele>
        <time>2014-06-16T20:12:48Z</time>
      </trkpt>
      <trkpt lat="59.9548845" lon="17.7212574">
        <ele>59.2584</ele>
        <time>2014-06-16T20:12:49Z</time>
      </trkpt>
      <trkpt lat="59.95485" lon="17.7211986">
        <ele>59.7391</ele>
        <time>2014-06-16T20:12:50Z</time>
      </trkpt>
      <trkpt lat="59.9548103" lon="17.7211398">
        <ele>59.7391</ele>
        <time>2014-06-16T20:12:51Z</time>
      </trkpt>
      <trkpt lat="59.9547948" lon="17.7210846">
        <ele>60.2197</ele>
        <time>2014-06-16T20:12:52Z</time>
      </trkpt>
      <trkpt lat="59.9547931" lon="17.7210256">
        <ele>59.2584</ele>
        <time>2014-06-16T20:12:53Z</time>
      </trkpt>
      <trkpt lat="59.9548095" lon="17.7209674">
        <ele>59.2584</ele>
        <time>2014-06-16T20:12:54Z</time>
      </trkpt>
      <trkpt lat="59.9548191" lon="17.7209019">
        <ele>58.2971</ele>
        <time>2014-06-16T20:12:55Z</time>
      </trkpt>
      <trkpt lat="59.9548238" lon="17.720839">
        <ele>58.2971</ele>
        <time>2014-06-16T20:12:56Z</time>
      </trkpt>
      <trkpt lat="59.9548289" lon="17.7207805">
        <ele>58.7777</ele>
        <time>2014-06-16T20:12:57Z</time>
      </trkpt>
      <trkpt lat="59.9548327" lon="17.720726">
        <ele>58.7777</ele>
        <time>2014-06-16T20:12:58Z</time>
      </trkpt>
      <trkpt lat="59.9548463" lon="17.7206822">
        <ele>58.2971</ele>
        <time>2014-06-16T20:12:59Z</time>
      </trkpt>
      <trkpt lat="59.9548653" lon="17.7206315">
        <ele>58.7777</ele>
        <time>2014-06-16T20:13:00Z</time>
      </trkpt>
      <trkpt lat="59.9548971" lon="17.72059">
        <ele>60.2197</ele>
        <time>2014-06-16T20:13:01Z</time>
      </trkpt>
      <trkpt lat="59.9549143" lon="17.7205614">
        <ele>60.2197</ele>
        <time>2014-06-16T20:13:02Z</time>
      </trkpt>
      <trkpt lat="59.9549329" lon="17.7205327">
        <ele>60.2197</ele>
        <time>2014-06-16T20:13:03Z</time>
      </trkpt>
      <trkpt lat="59.9549547" lon="17.7205139">
        <ele>59.7391</ele>
        <time>2014-06-16T20:13:04Z</time>
      </trkpt>
      <trkpt lat="59.9549658" lon="17.720488">
        <ele>58.7777</ele>
        <time>2014-06-16T20:13:05Z</time>
      </trkpt>
      <trkpt lat="59.9549786" lon="17.7204535">
        <ele>57.8165</ele>
        <time>2014-06-16T20:13:06Z</time>
      </trkpt>
      <trkpt lat="59.9549988" lon="17.7204225">
        <ele>57.3358</ele>
        <time>2014-06-16T20:13:07Z</time>
      </trkpt>
      <trkpt lat="59.9550195" lon="17.7203915">
        <ele>56.8551</ele>
        <time>2014-06-16T20:13:08Z</time>
      </trkpt>
      <trkpt lat="59.9550408" lon="17.7203633">
        <ele>56.8551</ele>
        <time>2014-06-16T20:13:09Z</time>
      </trkpt>
      <trkpt lat="59.9550634" lon="17.7203402">
        <ele>55.4131</ele>
        <time>2014-06-16T20:13:10Z</time>
      </trkpt>
      <trkpt lat="59.9550833" lon="17.72032">
        <ele>54.4518</ele>
        <time>2014-06-16T20:13:11Z</time>
      </trkpt>
      <trkpt lat="59.9550997" lon="17.7202961">
        <ele>54.9324</ele>
        <time>2014-06-16T20:13:12Z</time>
      </trkpt>
      <trkpt lat="59.9551211" lon="17.7202738">
        <ele>54.9324</ele>
        <time>2014-06-16T20:13:13Z</time>
      </trkpt>
      <trkpt lat="59.9551391" lon="17.7202511">
        <ele>54.4518</ele>
        <time>2014-06-16T20:13:14Z</time>
      </trkpt>
      <trkpt lat="59.9551625" lon="17.7202262">
        <ele>54.4518</ele>
        <time>2014-06-16T20:13:15Z</time>
      </trkpt>
      <trkpt lat="59.9551841" lon="17.7201987">
        <ele>53.4905</ele>
        <time>2014-06-16T20:13:16Z</time>
      </trkpt>
      <trkpt lat="59.9552091" lon="17.7201709">
        <ele>53.4905</ele>
        <time>2014-06-16T20:13:17Z</time>
      </trkpt>
      <trkpt lat="59.955231" lon="17.7201491">
        <ele>53.0098</ele>
        <time>2014-06-16T20:13:18Z</time>
      </trkpt>
      <trkpt lat="59.9552572" lon="17.7201361">
        <ele>53.4905</ele>
        <time>2014-06-16T20:13:19Z</time>
      </trkpt>
      <trkpt lat="59.9552773" lon="17.7201155">
        <ele>52.5292</ele>
        <time>2014-06-16T20:13:20Z</time>
      </trkpt>
      <trkpt lat="59.955297" lon="17.7200865">
        <ele>52.0486</ele>
        <time>2014-06-16T20:13:21Z</time>
      </trkpt>
      <trkpt lat="59.9553211" lon="17.7200624">
        <ele>52.0486</ele>
        <time>2014-06-16T20:13:22Z</time>
      </trkpt>
      <trkpt lat="59.9553434" lon="17.7200425">
        <ele>52.0486</ele>
        <time>2014-06-16T20:13:23Z</time>
      </trkpt>
      <trkpt lat="59.9553669" lon="17.7200205">
        <ele>52.0486</ele>
        <time>2014-06-16T20:13:24Z</time>
      </trkpt>
      <trkpt lat="59.9553904" lon="17.7199995">
        <ele>51.5679</ele>
        <time>2014-06-16T20:13:25Z</time>
      </trkpt>
      <trkpt lat="59.9554132" lon="17.7199736">
        <ele>51.0872</ele>
        <time>2014-06-16T20:13:26Z</time>
      </trkpt>
      <trkpt lat="59.9554381" lon="17.7199466">
        <ele>51.5679</ele>
        <time>2014-06-16T20:13:27Z</time>
      </trkpt>
      <trkpt lat="59.9554604" lon="17.7199232">
        <ele>52.0486</ele>
        <time>2014-06-16T20:13:28Z</time>
      </trkpt>
      <trkpt lat="59.9554847" lon="17.7199057">
        <ele>52.0486</ele>
        <time>2014-06-16T20:13:29Z</time>
      </trkpt>
      <trkpt lat="59.9555083" lon="17.7199013">
        <ele>52.0486</ele>
        <time>2014-06-16T20:13:30Z</time>
      </trkpt>
      <trkpt lat="59.9555324" lon="17.7198994">
        <ele>52.0486</ele>
        <time>2014-06-16T20:13:31Z</time>
      </trkpt>
      <trkpt lat="59.9555503" lon="17.719909">
        <ele>52.5292</ele>
        <time>2014-06-16T20:13:32Z</time>
      </trkpt>
      <trkpt lat="59.9555656" lon="17.719913">
        <ele>52.0486</ele>
        <time>2014-06-16T20:13:33Z</time>
      </trkpt>
      <trkpt lat="59.9555837" lon="17.7199083">
        <ele>51.5679</ele>
        <time>2014-06-16T20:13:34Z</time>
      </trkpt>
      <trkpt lat="59.9556128" lon="17.7198901">
        <ele>52.5292</ele>
        <time>2014-06-16T20:13:35Z</time>
      </trkpt>
      <trkpt lat="59.9556368" lon="17.7198664">
        <ele>52.5292</ele>
        <time>2014-06-16T20:13:36Z</time>
      </trkpt>
      <trkpt lat="59.9556591" lon="17.7198424">
        <ele>52.5292</ele>
        <time>2014-06-16T20:13:37Z</time>
      </trkpt>
      <trkpt lat="59.9556862" lon="17.7198197">
        <ele>52.5292</ele>
        <time>2014-06-16T20:13:38Z</time>
      </trkpt>
      <trkpt lat="59.9557126" lon="17.7198025">
        <ele>52.0486</ele>
        <time>2014-06-16T20:13:39Z</time>
      </trkpt>
      <trkpt lat="59.9557406" lon="17.7197793">
        <ele>52.0486</ele>
        <time>2014-06-16T20:13:40Z</time>
      </trkpt>
      <trkpt lat="59.9557702" lon="17.7197597">
        <ele>52.0486</ele>
        <time>2014-06-16T20:13:41Z</time>
      </trkpt>
      <trkpt lat="59.9557933" lon="17.7197371">
        <ele>51.5679</ele>
        <time>2014-06-16T20:13:42Z</time>
      </trkpt>
      <trkpt lat="59.9558151" lon="17.7197098">
        <ele>51.5679</ele>
        <time>2014-06-16T20:13:43Z</time>
      </trkpt>
      <trkpt lat="59.955839" lon="17.7196835">
        <ele>51.5679</ele>
        <time>2014-06-16T20:13:44Z</time>
      </trkpt>
      <trkpt lat="59.9558624" lon="17.7196621">
        <ele>51.5679</ele>
        <time>2014-06-16T20:13:45Z</time>
      </trkpt>
      <trkpt lat="59.9558827" lon="17.7196372">
        <ele>52.0486</ele>
        <time>2014-06-16T20:13:46Z</time>
      </trkpt>
      <trkpt lat="59.9558989" lon="17.7196112">
        <ele>51.5679</ele>
        <time>2014-06-16T20:13:47Z</time>
      </trkpt>
      <trkpt lat="59.9559188" lon="17.719587">
        <ele>51.5679</ele>
        <time>2014-06-16T20:13:48Z</time>
      </trkpt>
      <trkpt lat="59.9559354" lon="17.7195592">
        <ele>51.5679</ele>
        <time>2014-06-16T20:13:49Z</time>
      </trkpt>
      <trkpt lat="59.9559463" lon="17.719533">
        <ele>50.126</ele>
        <time>2014-06-16T20:13:50Z</time>
      </trkpt>
      <trkpt lat="59.9559685" lon="17.7195063">
        <ele>51.0872</ele>
        <time>2014-06-16T20:13:51Z</time>
      </trkpt>
      <trkpt lat="59.9559903" lon="17.7194752">
        <ele>51.0872</ele>
        <time>2014-06-16T20:13:52Z</time>
      </trkpt>
      <trkpt lat="59.9560109" lon="17.7194387">
        <ele>51.5679</ele>
        <time>2014-06-16T20:13:53Z</time>
      </trkpt>
      <trkpt lat="59.9560411" lon="17.719403">
        <ele>52.0486</ele>
        <time>2014-06-16T20:13:54Z</time>
      </trkpt>
      <trkpt lat="59.9560659" lon="17.7193673">
        <ele>52.0486</ele>
        <time>2014-06-16T20:13:55Z</time>
      </trkpt>
      <trkpt lat="59.956083" lon="17.7193306">
        <ele>52.0486</ele>
        <time>2014-06-16T20:13:56Z</time>
      </trkpt>
      <trkpt lat="59.9561058" lon="17.7192942">
        <ele>52.5292</ele>
        <time>2014-06-16T20:13:57Z</time>
      </trkpt>
      <trkpt lat="59.9561253" lon="17.719246">
        <ele>52.5292</ele>
        <time>2014-06-16T20:13:58Z</time>
      </trkpt>
      <trkpt lat="59.956139" lon="17.7191966">
        <ele>52.0486</ele>
        <time>2014-06-16T20:13:59Z</time>
      </trkpt>
      <trkpt lat="59.9561576" lon="17.7191457">
        <ele>52.5292</ele>
        <time>2014-06-16T20:14:00Z</time>
      </trkpt>
      <trkpt lat="59.9561676" lon="17.7190881">
        <ele>52.0486</ele>
        <time>2014-06-16T20:14:01Z</time>
      </trkpt>
      <trkpt lat="59.9561693" lon="17.7190341">
        <ele>51.5679</ele>
        <time>2014-06-16T20:14:02Z</time>
      </trkpt>
      <trkpt lat="59.9561722" lon="17.718988">
        <ele>50.6066</ele>
        <time>2014-06-16T20:14:03Z</time>
      </trkpt>
      <trkpt lat="59.9561742" lon="17.7189395">
        <ele>50.6066</ele>
        <time>2014-06-16T20:14:04Z</time>
      </trkpt>
      <trkpt lat="59.9561819" lon="17.7188867">
        <ele>51.0872</ele>
        <time>2014-06-16T20:14:05Z</time>
      </trkpt>
      <trkpt lat="59.9561856" lon="17.7188359">
        <ele>51.0872</ele>
        <time>2014-06-16T20:14:06Z</time>
      </trkpt>
      <trkpt lat="59.9562023" lon="17.7187836">
        <ele>51.0872</ele>
        <time>2014-06-16T20:14:07Z</time>
      </trkpt>
      <trkpt lat="59.9562094" lon="17.7187238">
        <ele>52.0486</ele>
        <time>2014-06-16T20:14:08Z</time>
      </trkpt>
      <trkpt lat="59.9562079" lon="17.7186728">
        <ele>53.0098</ele>
        <time>2014-06-16T20:14:09Z</time>
      </trkpt>
      <trkpt lat="59.9562" lon="17.7186214">
        <ele>53.4905</ele>
        <time>2014-06-16T20:14:10Z</time>
      </trkpt>
      <trkpt lat="59.9561865" lon="17.7185682">
        <ele>52.5292</ele>
        <time>2014-06-16T20:14:11Z</time>
      </trkpt>
      <trkpt lat="59.95617" lon="17.7185166">
        <ele>52.5292</ele>
        <time>2014-06-16T20:14:12Z</time>
      </trkpt>
      <trkpt lat="59.9561483" lon="17.7184625">
        <ele>53.0098</ele>
        <time>2014-06-16T20:14:13Z</time>
      </trkpt>
      <trkpt lat="59.9561235" lon="17.7184064">
        <ele>53.0098</ele>
        <time>2014-06-16T20:14:14Z</time>
      </trkpt>
      <trkpt lat="59.9561073" lon="17.7183531">
        <ele>52.5292</ele>
        <time>2014-06-16T20:14:15Z</time>
      </trkpt>
      <trkpt lat="59.9560978" lon="17.7183149">
        <ele>53.0098</ele>
        <time>2014-06-16T20:14:16Z</time>
      </trkpt>
      <trkpt lat="59.9560861" lon="17.7182763">
        <ele>53.9712</ele>
        <time>2014-06-16T20:14:17Z</time>
      </trkpt>
      <trkpt lat="59.9560752" lon="17.7182395">
        <ele>54.4518</ele>
        <time>2014-06-16T20:14:18Z</time>
      </trkpt>
      <trkpt lat="59.9560659" lon="17.7182064">
        <ele>53.9712</ele>
        <time>2014-06-16T20:14:19Z</time>
      </trkpt>
      <trkpt lat="59.9560471" lon="17.7181706">
        <ele>54.4518</ele>
        <time>2014-06-16T20:14:20Z</time>
      </trkpt>
      <trkpt lat="59.9560328" lon="17.7181366">
        <ele>54.9324</ele>
        <time>2014-06-16T20:14:21Z</time>
      </trkpt>
      <trkpt lat="59.9560075" lon="17.7181136">
        <ele>55.8938</ele>
        <time>2014-06-16T20:14:22Z</time>
      </trkpt>
      <trkpt lat="59.955992" lon="17.7180864">
        <ele>57.3358</ele>
        <time>2014-06-16T20:14:23Z</time>
      </trkpt>
      <trkpt lat="59.9559872" lon="17.7180499">
        <ele>58.7777</ele>
        <time>2014-06-16T20:14:24Z</time>
      </trkpt>
      <trkpt lat="59.9559763" lon="17.7180029">
        <ele>58.7777</ele>
        <time>2014-06-16T20:14:25Z</time>
      </trkpt>
      <trkpt lat="59.9559701" lon="17.7179677">
        <ele>59.2584</ele>
        <time>2014-06-16T20:14:26Z</time>
      </trkpt>
      <trkpt lat="59.9559557" lon="17.7179297">
        <ele>59.2584</ele>
        <time>2014-06-16T20:14:27Z</time>
      </trkpt>
      <trkpt lat="59.9559333" lon="17.7178776">
        <ele>58.7777</ele>
        <time>2014-06-16T20:14:28Z</time>
      </trkpt>
      <trkpt lat="59.9559069" lon="17.7178207">
        <ele>59.2584</ele>
        <time>2014-06-16T20:14:29Z</time>
      </trkpt>
      <trkpt lat="59.955882" lon="17.7177688">
        <ele>60.2197</ele>
        <time>2014-06-16T20:14:30Z</time>
      </trkpt>
      <trkpt lat="59.9558524" lon="17.7177195">
        <ele>60.2197</ele>
        <time>2014-06-16T20:14:31Z</time>
      </trkpt>
      <trkpt lat="59.9558343" lon="17.7176752">
        <ele>60.7003</ele>
        <time>2014-06-16T20:14:32Z</time>
      </trkpt>
      <trkpt lat="59.9558179" lon="17.7176356">
        <ele>60.7003</ele>
        <time>2014-06-16T20:14:33Z</time>
      </trkpt>
      <trkpt lat="59.9558067" lon="17.7175915">
        <ele>61.181</ele>
        <time>2014-06-16T20:14:34Z</time>
      </trkpt>
      <trkpt lat="59.955798" lon="17.7175478">
        <ele>61.181</ele>
        <time>2014-06-16T20:14:35Z</time>
      </trkpt>
      <trkpt lat="59.9557866" lon="17.7175062">
        <ele>60.2197</ele>
        <time>2014-06-16T20:14:36Z</time>
      </trkpt>
      <trkpt lat="59.9557691" lon="17.7174654">
        <ele>60.2197</ele>
        <time>2014-06-16T20:14:37Z</time>
      </trkpt>
      <trkpt lat="59.9557511" lon="17.7174314">
        <ele>59.7391</ele>
        <time>2014-06-16T20:14:38Z</time>
      </trkpt>
      <trkpt lat="59.9557318" lon="17.7174031">
        <ele>59.2584</ele>
        <time>2014-06-16T20:14:39Z</time>
      </trkpt>
      <trkpt lat="59.9557172" lon="17.7173731">
        <ele>58.7777</ele>
        <time>2014-06-16T20:14:40Z</time>
      </trkpt>
      <trkpt lat="59.9557049" lon="17.7173447">
        <ele>59.2584</ele>
        <time>2014-06-16T20:14:41Z</time>
      </trkpt>
      <trkpt lat="59.9556929" lon="17.7173129">
        <ele>59.2584</ele>
        <time>2014-06-16T20:14:42Z</time>
      </trkpt>
      <trkpt lat="59.9556819" lon="17.7172741">
        <ele>58.7777</ele>
        <time>2014-06-16T20:14:43Z</time>
      </trkpt>
      <trkpt lat="59.9556717" lon="17.7172237">
        <ele>58.2971</ele>
        <time>2014-06-16T20:14:44Z</time>
      </trkpt>
      <trkpt lat="59.9556597" lon="17.7171743">
        <ele>58.2971</ele>
        <time>2014-06-16T20:14:45Z</time>
      </trkpt>
      <trkpt lat="59.9556503" lon="17.7171244">
        <ele>58.2971</ele>
        <time>2014-06-16T20:14:46Z</time>
      </trkpt>
      <trkpt lat="59.955633" lon="17.7170626">
        <ele>57.3358</ele>
        <time>2014-06-16T20:14:47Z</time>
      </trkpt>
      <trkpt lat="59.9556199" lon="17.717008">
        <ele>56.3745</ele>
        <time>2014-06-16T20:14:48Z</time>
      </trkpt>
      <trkpt lat="59.9556158" lon="17.7169633">
        <ele>56.3745</ele>
        <time>2014-06-16T20:14:49Z</time>
      </trkpt>
      <trkpt lat="59.9556045" lon="17.7169108">
        <ele>55.8938</ele>
        <time>2014-06-16T20:14:50Z</time>
      </trkpt>
      <trkpt lat="59.9556017" lon="17.7168437">
        <ele>54.9324</ele>
        <time>2014-06-16T20:14:51Z</time>
      </trkpt>
      <trkpt lat="59.9555985" lon="17.7167784">
        <ele>54.4518</ele>
        <time>2014-06-16T20:14:52Z</time>
      </trkpt>
      <trkpt lat="59.9555864" lon="17.7167202">
        <ele>53.4905</ele>
        <time>2014-06-16T20:14:53Z</time>
      </trkpt>
      <trkpt lat="59.9555762" lon="17.7166756">
        <ele>53.4905</ele>
        <time>2014-06-16T20:14:54Z</time>
      </trkpt>
      <trkpt lat="59.9555665" lon="17.7166244">
        <ele>53.4905</ele>
        <time>2014-06-16T20:14:55Z</time>
      </trkpt>
      <trkpt lat="59.9555619" lon="17.7165739">
        <ele>53.4905</ele>
        <time>2014-06-16T20:14:56Z</time>
      </trkpt>
      <trkpt lat="59.9555557" lon="17.71652">
        <ele>53.9712</ele>
        <time>2014-06-16T20:14:57Z</time>
      </trkpt>
      <trkpt lat="59.9555474" lon="17.7164599">
        <ele>53.4905</ele>
        <time>2014-06-16T20:14:58Z</time>
      </trkpt>
      <trkpt lat="59.955546" lon="17.7164049">
        <ele>53.0098</ele>
        <time>2014-06-16T20:14:59Z</time>
      </trkpt>
      <trkpt lat="59.9555443" lon="17.7163545">
        <ele>52.5292</ele>
        <time>2014-06-16T20:15:00Z</time>
      </trkpt>
      <trkpt lat="59.955538" lon="17.7163085">
        <ele>52.0486</ele>
        <time>2014-06-16T20:15:01Z</time>
      </trkpt>
      <trkpt lat="59.9555319" lon="17.716248">
        <ele>52.0486</ele>
        <time>2014-06-16T20:15:02Z</time>
      </trkpt>
      <trkpt lat="59.9555237" lon="17.7161854">
        <ele>51.0872</ele>
        <time>2014-06-16T20:15:03Z</time>
      </trkpt>
      <trkpt lat="59.9555142" lon="17.7161241">
        <ele>50.6066</ele>
        <time>2014-06-16T20:15:04Z</time>
      </trkpt>
      <trkpt lat="59.9555023" lon="17.7160671">
        <ele>50.6066</ele>
        <time>2014-06-16T20:15:05Z</time>
      </trkpt>
      <trkpt lat="59.9554975" lon="17.7160067">
        <ele>50.126</ele>
        <time>2014-06-16T20:15:06Z</time>
      </trkpt>
      <trkpt lat="59.9554899" lon="17.7159517">
        <ele>49.1646</ele>
        <time>2014-06-16T20:15:07Z</time>
      </trkpt>
      <trkpt lat="59.9554838" lon="17.7159005">
        <ele>49.1646</ele>
        <time>2014-06-16T20:15:08Z</time>
      </trkpt>
      <trkpt lat="59.9554794" lon="17.7158429">
        <ele>49.6453</ele>
        <time>2014-06-16T20:15:09Z</time>
      </trkpt>
      <trkpt lat="59.9554692" lon="17.7157802">
        <ele>49.1646</ele>
        <time>2014-06-16T20:15:10Z</time>
      </trkpt>
      <trkpt lat="59.9554547" lon="17.7157186">
        <ele>47.7225</ele>
        <time>2014-06-16T20:15:11Z</time>
      </trkpt>
      <trkpt lat="59.9554495" lon="17.7156617">
        <ele>48.2034</ele>
        <time>2014-06-16T20:15:12Z</time>
      </trkpt>
      <trkpt lat="59.9554415" lon="17.715604">
        <ele>47.7225</ele>
        <time>2014-06-16T20:15:13Z</time>
      </trkpt>
      <trkpt lat="59.9554319" lon="17.7155445">
        <ele>47.7225</ele>
        <time>2014-06-16T20:15:14Z</time>
      </trkpt>
      <trkpt lat="59.9554234" lon="17.7154854">
        <ele>47.7225</ele>
        <time>2014-06-16T20:15:15Z</time>
      </trkpt>
      <trkpt lat="59.9554038" lon="17.7154228">
        <ele>47.2418</ele>
        <time>2014-06-16T20:15:16Z</time>
      </trkpt>
      <trkpt lat="59.9553889" lon="17.7153627">
        <ele>46.7612</ele>
        <time>2014-06-16T20:15:17Z</time>
      </trkpt>
      <trkpt lat="59.9553814" lon="17.7153057">
        <ele>47.2418</ele>
        <time>2014-06-16T20:15:18Z</time>
      </trkpt>
      <trkpt lat="59.9553666" lon="17.7152425">
        <ele>47.2418</ele>
        <time>2014-06-16T20:15:19Z</time>
      </trkpt>
      <trkpt lat="59.9553598" lon="17.7151703">
        <ele>46.7612</ele>
        <time>2014-06-16T20:15:20Z</time>
      </trkpt>
      <trkpt lat="59.955352" lon="17.7151073">
        <ele>46.7612</ele>
        <time>2014-06-16T20:15:21Z</time>
      </trkpt>
      <trkpt lat="59.955332" lon="17.7150529">
        <ele>46.7612</ele>
        <time>2014-06-16T20:15:22Z</time>
      </trkpt>
      <trkpt lat="59.9553242" lon="17.715008">
        <ele>47.2418</ele>
        <time>2014-06-16T20:15:23Z</time>
      </trkpt>
      <trkpt lat="59.9553204" lon="17.7149617">
        <ele>46.7612</ele>
        <time>2014-06-16T20:15:24Z</time>
      </trkpt>
      <trkpt lat="59.9553157" lon="17.7149173">
        <ele>47.7225</ele>
        <time>2014-06-16T20:15:25Z</time>
      </trkpt>
      <trkpt lat="59.9553065" lon="17.714873">
        <ele>47.7225</ele>
        <time>2014-06-16T20:15:26Z</time>
      </trkpt>
      <trkpt lat="59.9552963" lon="17.7148243">
        <ele>47.7225</ele>
        <time>2014-06-16T20:15:27Z</time>
      </trkpt>
      <trkpt lat="59.9552903" lon="17.7147819">
        <ele>48.684</ele>
        <time>2014-06-16T20:15:28Z</time>
      </trkpt>
      <trkpt lat="59.9552809" lon="17.7147374">
        <ele>49.1646</ele>
        <time>2014-06-16T20:15:29Z</time>
      </trkpt>
      <trkpt lat="59.9552709" lon="17.7146888">
        <ele>49.6453</ele>
        <time>2014-06-16T20:15:30Z</time>
      </trkpt>
      <trkpt lat="59.9552644" lon="17.7146442">
        <ele>51.5679</ele>
        <time>2014-06-16T20:15:31Z</time>
      </trkpt>
      <trkpt lat="59.9552558" lon="17.7145997">
        <ele>51.0872</ele>
        <time>2014-06-16T20:15:32Z</time>
      </trkpt>
      <trkpt lat="59.9552496" lon="17.7145567">
        <ele>50.6066</ele>
        <time>2014-06-16T20:15:33Z</time>
      </trkpt>
      <trkpt lat="59.9552577" lon="17.7145135">
        <ele>52.5292</ele>
        <time>2014-06-16T20:15:34Z</time>
      </trkpt>
      <trkpt lat="59.9552526" lon="17.7144733">
        <ele>52.5292</ele>
        <time>2014-06-16T20:15:35Z</time>
      </trkpt>
      <trkpt lat="59.9552438" lon="17.7144298">
        <ele>52.0486</ele>
        <time>2014-06-16T20:15:36Z</time>
      </trkpt>
      <trkpt lat="59.9552355" lon="17.7143784">
        <ele>52.5292</ele>
        <time>2014-06-16T20:15:37Z</time>
      </trkpt>
      <trkpt lat="59.9552246" lon="17.7143349">
        <ele>52.5292</ele>
        <time>2014-06-16T20:15:38Z</time>
      </trkpt>
      <trkpt lat="59.9552185" lon="17.7142946">
        <ele>53.0098</ele>
        <time>2014-06-16T20:15:39Z</time>
      </trkpt>
      <trkpt lat="59.9552071" lon="17.71424">
        <ele>53.0098</ele>
        <time>2014-06-16T20:15:40Z</time>
      </trkpt>
      <trkpt lat="59.9551868" lon="17.7141827">
        <ele>53.0098</ele>
        <time>2014-06-16T20:15:41Z</time>
      </trkpt>
      <trkpt lat="59.9551625" lon="17.7141351">
        <ele>53.0098</ele>
        <time>2014-06-16T20:15:42Z</time>
      </trkpt>
      <trkpt lat="59.9551406" lon="17.7141068">
        <ele>52.5292</ele>
        <time>2014-06-16T20:15:43Z</time>
      </trkpt>
      <trkpt lat="59.9551101" lon="17.7141009">
        <ele>52.5292</ele>
        <time>2014-06-16T20:15:44Z</time>
      </trkpt>
      <trkpt lat="59.9550827" lon="17.7141152">
        <ele>51.5679</ele>
        <time>2014-06-16T20:15:45Z</time>
      </trkpt>
      <trkpt lat="59.9550652" lon="17.7141491">
        <ele>50.6066</ele>
        <time>2014-06-16T20:15:46Z</time>
      </trkpt>
      <trkpt lat="59.9550553" lon="17.7141933">
        <ele>49.6453</ele>
        <time>2014-06-16T20:15:47Z</time>
      </trkpt>
      <trkpt lat="59.9550399" lon="17.7142281">
        <ele>48.684</ele>
        <time>2014-06-16T20:15:48Z</time>
      </trkpt>
      <trkpt lat="59.9550245" lon="17.7142583">
        <ele>48.684</ele>
        <time>2014-06-16T20:15:49Z</time>
      </trkpt>
      <trkpt lat="59.9550071" lon="17.7142883">
        <ele>48.684</ele>
        <time>2014-06-16T20:15:50Z</time>
      </trkpt>
      <trkpt lat="59.9549867" lon="17.7143234">
        <ele>48.2034</ele>
        <time>2014-06-16T20:15:51Z</time>
      </trkpt>
      <trkpt lat="59.9549719" lon="17.7143629">
        <ele>47.7225</ele>
        <time>2014-06-16T20:15:52Z</time>
      </trkpt>
      <trkpt lat="59.9549553" lon="17.7144044">
        <ele>47.7225</ele>
        <time>2014-06-16T20:15:53Z</time>
      </trkpt>
      <trkpt lat="59.9549298" lon="17.7144416">
        <ele>46.7612</ele>
        <time>2014-06-16T20:15:54Z</time>
      </trkpt>
      <trkpt lat="59.9549102" lon="17.7144835">
        <ele>46.2806</ele>
        <time>2014-06-16T20:15:55Z</time>
      </trkpt>
      <trkpt lat="59.9548896" lon="17.7145271">
        <ele>45.3192</ele>
        <time>2014-06-16T20:15:56Z</time>
      </trkpt>
      <trkpt lat="59.9548657" lon="17.7145668">
        <ele>44.8386</ele>
        <time>2014-06-16T20:15:57Z</time>
      </trkpt>
      <trkpt lat="59.9548445" lon="17.7146057">
        <ele>45.3192</ele>
        <time>2014-06-16T20:15:58Z</time>
      </trkpt>
      <trkpt lat="59.9548212" lon="17.7146478">
        <ele>44.8386</ele>
        <time>2014-06-16T20:15:59Z</time>
      </trkpt>
      <trkpt lat="59.9547959" lon="17.7146912">
        <ele>44.8386</ele>
        <time>2014-06-16T20:16:00Z</time>
      </trkpt>
      <trkpt lat="59.9547674" lon="17.7147333">
        <ele>45.3192</ele>
        <time>2014-06-16T20:16:01Z</time>
      </trkpt>
      <trkpt lat="59.9547355" lon="17.7147549">
        <ele>45.7999</ele>
        <time>2014-06-16T20:16:02Z</time>
      </trkpt>
      <trkpt lat="59.9547088" lon="17.7147639">
        <ele>46.2806</ele>
        <time>2014-06-16T20:16:03Z</time>
      </trkpt>
      <trkpt lat="59.9546843" lon="17.7147702">
        <ele>46.2806</ele>
        <time>2014-06-16T20:16:04Z</time>
      </trkpt>
      <trkpt lat="59.9546617" lon="17.7147799">
        <ele>46.7612</ele>
        <time>2014-06-16T20:16:05Z</time>
      </trkpt>
      <trkpt lat="59.9546391" lon="17.7147873">
        <ele>47.7225</ele>
        <time>2014-06-16T20:16:06Z</time>
      </trkpt>
      <trkpt lat="59.9546174" lon="17.7147939">
        <ele>47.7225</ele>
        <time>2014-06-16T20:16:07Z</time>
      </trkpt>
      <trkpt lat="59.9545989" lon="17.7148042">
        <ele>47.7225</ele>
        <time>2014-06-16T20:16:08Z</time>
      </trkpt>
      <trkpt lat="59.9545818" lon="17.7148096">
        <ele>47.7225</ele>
        <time>2014-06-16T20:16:09Z</time>
      </trkpt>
      <trkpt lat="59.9545641" lon="17.7148141">
        <ele>48.684</ele>
        <time>2014-06-16T20:16:10Z</time>
      </trkpt>
      <trkpt lat="59.9545445" lon="17.7148172">
        <ele>48.2034</ele>
        <time>2014-06-16T20:16:11Z</time>
      </trkpt>
      <trkpt lat="59.9545207" lon="17.7148279">
        <ele>47.7225</ele>
        <time>2014-06-16T20:16:12Z</time>
      </trkpt>
      <trkpt lat="59.9544958" lon="17.7148333">
        <ele>47.7225</ele>
        <time>2014-06-16T20:16:13Z</time>
      </trkpt>
      <trkpt lat="59.9544726" lon="17.7148467">
        <ele>47.7225</ele>
        <time>2014-06-16T20:16:14Z</time>
      </trkpt>
      <trkpt lat="59.9544497" lon="17.7148601">
        <ele>47.7225</ele>
        <time>2014-06-16T20:16:15Z</time>
      </trkpt>
      <trkpt lat="59.9544295" lon="17.7148741">
        <ele>47.2418</ele>
        <time>2014-06-16T20:16:16Z</time>
      </trkpt>
      <trkpt lat="59.9544122" lon="17.7148961">
        <ele>47.7225</ele>
        <time>2014-06-16T20:16:17Z</time>
      </trkpt>
      <trkpt lat="59.9543917" lon="17.7149115">
        <ele>47.7225</ele>
        <time>2014-06-16T20:16:18Z</time>
      </trkpt>
      <trkpt lat="59.9543673" lon="17.7149243">
        <ele>48.2034</ele>
        <time>2014-06-16T20:16:19Z</time>
      </trkpt>
      <trkpt lat="59.9543435" lon="17.7149359">
        <ele>48.684</ele>
        <time>2014-06-16T20:16:20Z</time>
      </trkpt>
      <trkpt lat="59.9543139" lon="17.7149268">
        <ele>48.684</ele>
        <time>2014-06-16T20:16:21Z</time>
      </trkpt>
      <trkpt lat="59.9542849" lon="17.714917">
        <ele>48.2034</ele>
        <time>2014-06-16T20:16:22Z</time>
      </trkpt>
      <trkpt lat="59.9542554" lon="17.7149222">
        <ele>48.2034</ele>
        <time>2014-06-16T20:16:23Z</time>
      </trkpt>
      <trkpt lat="59.9542244" lon="17.7149271">
        <ele>48.684</ele>
        <time>2014-06-16T20:16:24Z</time>
      </trkpt>
      <trkpt lat="59.9541918" lon="17.714929">
        <ele>48.684</ele>
        <time>2014-06-16T20:16:25Z</time>
      </trkpt>
      <trkpt lat="59.9541654" lon="17.7149409">
        <ele>49.1646</ele>
        <time>2014-06-16T20:16:26Z</time>
      </trkpt>
      <trkpt lat="59.9541382" lon="17.7149592">
        <ele>50.126</ele>
        <time>2014-06-16T20:16:27Z</time>
      </trkpt>
      <trkpt lat="59.9541121" lon="17.7149623">
        <ele>50.126</ele>
        <time>2014-06-16T20:16:28Z</time>
      </trkpt>
      <trkpt lat="59.9540871" lon="17.714968">
        <ele>50.6066</ele>
        <time>2014-06-16T20:16:29Z</time>
      </trkpt>
      <trkpt lat="59.9540644" lon="17.7149829">
        <ele>51.5679</ele>
        <time>2014-06-16T20:16:30Z</time>
      </trkpt>
      <trkpt lat="59.9540411" lon="17.7149936">
        <ele>53.0098</ele>
        <time>2014-06-16T20:16:31Z</time>
      </trkpt>
      <trkpt lat="59.9540198" lon="17.7150084">
        <ele>55.4131</ele>
        <time>2014-06-16T20:16:32Z</time>
      </trkpt>
      <trkpt lat="59.9539974" lon="17.7150196">
        <ele>55.8938</ele>
        <time>2014-06-16T20:16:33Z</time>
      </trkpt>
      <trkpt lat="59.9539745" lon="17.7150302">
        <ele>55.8938</ele>
        <time>2014-06-16T20:16:34Z</time>
      </trkpt>
      <trkpt lat="59.9539487" lon="17.7150383">
        <ele>55.4131</ele>
        <time>2014-06-16T20:16:35Z</time>
      </trkpt>
      <trkpt lat="59.9539254" lon="17.7150492">
        <ele>56.3745</ele>
        <time>2014-06-16T20:16:36Z</time>
      </trkpt>
      <trkpt lat="59.9538893" lon="17.7150493">
        <ele>57.3358</ele>
        <time>2014-06-16T20:16:37Z</time>
      </trkpt>
      <trkpt lat="59.9538555" lon="17.7150535">
        <ele>57.8165</ele>
        <time>2014-06-16T20:16:38Z</time>
      </trkpt>
      <trkpt lat="59.9538266" lon="17.7150584">
        <ele>57.8165</ele>
        <time>2014-06-16T20:16:39Z</time>
      </trkpt>
      <trkpt lat="59.953801" lon="17.715056">
        <ele>57.3358</ele>
        <time>2014-06-16T20:16:40Z</time>
      </trkpt>
      <trkpt lat="59.9537716" lon="17.7150564">
        <ele>57.8165</ele>
        <time>2014-06-16T20:16:41Z</time>
      </trkpt>
      <trkpt lat="59.9537478" lon="17.7150735">
        <ele>57.8165</ele>
        <time>2014-06-16T20:16:42Z</time>
      </trkpt>
      <trkpt lat="59.9537233" lon="17.7150953">
        <ele>56.8551</ele>
        <time>2014-06-16T20:16:43Z</time>
      </trkpt>
      <trkpt lat="59.9537022" lon="17.7151156">
        <ele>56.3745</ele>
        <time>2014-06-16T20:16:44Z</time>
      </trkpt>
      <trkpt lat="59.9536751" lon="17.7151462">
        <ele>56.3745</ele>
        <time>2014-06-16T20:16:45Z</time>
      </trkpt>
      <trkpt lat="59.9536484" lon="17.7151715">
        <ele>56.3745</ele>
        <time>2014-06-16T20:16:46Z</time>
      </trkpt>
      <trkpt lat="59.9536282" lon="17.7151867">
        <ele>56.3745</ele>
        <time>2014-06-16T20:16:47Z</time>
      </trkpt>
      <trkpt lat="59.9536002" lon="17.7151911">
        <ele>55.4131</ele>
        <time>2014-06-16T20:16:48Z</time>
      </trkpt>
      <trkpt lat="59.9535681" lon="17.7152036">
        <ele>56.8551</ele>
        <time>2014-06-16T20:16:49Z</time>
      </trkpt>
      <trkpt lat="59.9535375" lon="17.7152224">
        <ele>56.3745</ele>
        <time>2014-06-16T20:16:50Z</time>
      </trkpt>
      <trkpt lat="59.9535123" lon="17.7152461">
        <ele>55.4131</ele>
        <time>2014-06-16T20:16:51Z</time>
      </trkpt>
      <trkpt lat="59.9534838" lon="17.715263">
        <ele>55.4131</ele>
        <time>2014-06-16T20:16:52Z</time>
      </trkpt>
      <trkpt lat="59.9534609" lon="17.7152885">
        <ele>54.9324</ele>
        <time>2014-06-16T20:16:53Z</time>
      </trkpt>
      <trkpt lat="59.9534358" lon="17.7153149">
        <ele>53.9712</ele>
        <time>2014-06-16T20:16:54Z</time>
      </trkpt>
      <trkpt lat="59.9534172" lon="17.7153482">
        <ele>53.4905</ele>
        <time>2014-06-16T20:16:55Z</time>
      </trkpt>
      <trkpt lat="59.9533971" lon="17.7153825">
        <ele>53.4905</ele>
        <time>2014-06-16T20:16:56Z</time>
      </trkpt>
      <trkpt lat="59.9533754" lon="17.7154167">
        <ele>53.4905</ele>
        <time>2014-06-16T20:16:57Z</time>
      </trkpt>
      <trkpt lat="59.9533536" lon="17.715449">
        <ele>53.0098</ele>
        <time>2014-06-16T20:16:58Z</time>
      </trkpt>
      <trkpt lat="59.9533324" lon="17.7154838">
        <ele>52.5292</ele>
        <time>2014-06-16T20:16:59Z</time>
      </trkpt>
      <trkpt lat="59.9533091" lon="17.7155195">
        <ele>52.5292</ele>
        <time>2014-06-16T20:17:00Z</time>
      </trkpt>
      <trkpt lat="59.9532842" lon="17.7155652">
        <ele>53.0098</ele>
        <time>2014-06-16T20:17:01Z</time>
      </trkpt>
      <trkpt lat="59.9532635" lon="17.7156004">
        <ele>53.9712</ele>
        <time>2014-06-16T20:17:02Z</time>
      </trkpt>
      <trkpt lat="59.9532428" lon="17.7156562">
        <ele>55.4131</ele>
        <time>2014-06-16T20:17:03Z</time>
      </trkpt>
      <trkpt lat="59.9532193" lon="17.7157081">
        <ele>56.3745</ele>
        <time>2014-06-16T20:17:04Z</time>
      </trkpt>
      <trkpt lat="59.953192" lon="17.7157574">
        <ele>58.2971</ele>
        <time>2014-06-16T20:17:05Z</time>
      </trkpt>
      <trkpt lat="59.9531616" lon="17.715789">
        <ele>59.7391</ele>
        <time>2014-06-16T20:17:06Z</time>
      </trkpt>
      <trkpt lat="59.9531382" lon="17.7158223">
        <ele>60.7003</ele>
        <time>2014-06-16T20:17:07Z</time>
      </trkpt>
      <trkpt lat="59.9531178" lon="17.715862">
        <ele>61.6617</ele>
        <time>2014-06-16T20:17:08Z</time>
      </trkpt>
      <trkpt lat="59.9530963" lon="17.7158986">
        <ele>61.6617</ele>
        <time>2014-06-16T20:17:09Z</time>
      </trkpt>
      <trkpt lat="59.9530787" lon="17.7159439">
        <ele>62.1423</ele>
        <time>2014-06-16T20:17:10Z</time>
      </trkpt>
      <trkpt lat="59.9530688" lon="17.7159882">
        <ele>61.6617</ele>
        <time>2014-06-16T20:17:11Z</time>
      </trkpt>
      <trkpt lat="59.9530485" lon="17.7160282">
        <ele>60.7003</ele>
        <time>2014-06-16T20:17:12Z</time>
      </trkpt>
      <trkpt lat="59.9530297" lon="17.716061">
        <ele>59.2584</ele>
        <time>2014-06-16T20:17:13Z</time>
      </trkpt>
      <trkpt lat="59.9530153" lon="17.7160965">
        <ele>57.8165</ele>
        <time>2014-06-16T20:17:14Z</time>
      </trkpt>
      <trkpt lat="59.9530003" lon="17.7161402">
        <ele>56.3745</ele>
        <time>2014-06-16T20:17:15Z</time>
      </trkpt>
      <trkpt lat="59.952989" lon="17.7161863">
        <ele>55.8938</ele>
        <time>2014-06-16T20:17:16Z</time>
      </trkpt>
      <trkpt lat="59.952978" lon="17.7162286">
        <ele>54.4518</ele>
        <time>2014-06-16T20:17:17Z</time>
      </trkpt>
      <trkpt lat="59.9529671" lon="17.7162744">
        <ele>53.4905</ele>
        <time>2014-06-16T20:17:18Z</time>
      </trkpt>
      <trkpt lat="59.9529603" lon="17.716322">
        <ele>53.0098</ele>
        <time>2014-06-16T20:17:19Z</time>
      </trkpt>
      <trkpt lat="59.9529535" lon="17.71637">
        <ele>52.0486</ele>
        <time>2014-06-16T20:17:20Z</time>
      </trkpt>
      <trkpt lat="59.9529424" lon="17.7164163">
        <ele>52.5292</ele>
        <time>2014-06-16T20:17:21Z</time>
      </trkpt>
      <trkpt lat="59.952933" lon="17.7164503">
        <ele>52.0486</ele>
        <time>2014-06-16T20:17:22Z</time>
      </trkpt>
      <trkpt lat="59.9529277" lon="17.7164826">
        <ele>52.0486</ele>
        <time>2014-06-16T20:17:23Z</time>
      </trkpt>
      <trkpt lat="59.9529252" lon="17.7165337">
        <ele>52.0486</ele>
        <time>2014-06-16T20:17:24Z</time>
      </trkpt>
      <trkpt lat="59.9529246" lon="17.7165966">
        <ele>52.0486</ele>
        <time>2014-06-16T20:17:25Z</time>
      </trkpt>
      <trkpt lat="59.9529201" lon="17.7166516">
        <ele>51.5679</ele>
        <time>2014-06-16T20:17:26Z</time>
      </trkpt>
      <trkpt lat="59.9529211" lon="17.7167126">
        <ele>51.5679</ele>
        <time>2014-06-16T20:17:27Z</time>
      </trkpt>
      <trkpt lat="59.9529216" lon="17.7167767">
        <ele>51.5679</ele>
        <time>2014-06-16T20:17:28Z</time>
      </trkpt>
      <trkpt lat="59.9529174" lon="17.7168376">
        <ele>51.5679</ele>
        <time>2014-06-16T20:17:29Z</time>
      </trkpt>
      <trkpt lat="59.9529076" lon="17.7168991">
        <ele>52.0486</ele>
        <time>2014-06-16T20:17:30Z</time>
      </trkpt>
      <trkpt lat="59.952901" lon="17.7169592">
        <ele>52.0486</ele>
        <time>2014-06-16T20:17:31Z</time>
      </trkpt>
      <trkpt lat="59.9528992" lon="17.7170105">
        <ele>52.0486</ele>
        <time>2014-06-16T20:17:32Z</time>
      </trkpt>
      <trkpt lat="59.952893" lon="17.7170591">
        <ele>51.5679</ele>
        <time>2014-06-16T20:17:33Z</time>
      </trkpt>
      <trkpt lat="59.9528801" lon="17.717114">
        <ele>51.5679</ele>
        <time>2014-06-16T20:17:34Z</time>
      </trkpt>
      <trkpt lat="59.952866" lon="17.7171712">
        <ele>52.0486</ele>
        <time>2014-06-16T20:17:35Z</time>
      </trkpt>
      <trkpt lat="59.9528533" lon="17.7172305">
        <ele>52.0486</ele>
        <time>2014-06-16T20:17:36Z</time>
      </trkpt>
      <trkpt lat="59.9522689" lon="17.7264689">
        <ele>48.684</ele>
        <time>2014-06-16T20:26:53Z</time>
      </trkpt>
      <trkpt lat="59.9522765" lon="17.7264445">
        <ele>48.684</ele>
        <time>2014-06-16T20:26:54Z</time>
      </trkpt>
      <trkpt lat="59.9522891" lon="17.7264168">
        <ele>49.1646</ele>
        <time>2014-06-16T20:26:55Z</time>
      </trkpt>
      <trkpt lat="59.9523067" lon="17.7263816">
        <ele>49.6453</ele>
        <time>2014-06-16T20:26:56Z</time>
      </trkpt>
      <trkpt lat="59.9523258" lon="17.7263409">
        <ele>49.6453</ele>
        <time>2014-06-16T20:26:57Z</time>
      </trkpt>
      <trkpt lat="59.9523487" lon="17.7262983">
        <ele>49.1646</ele>
        <time>2014-06-16T20:26:58Z</time>
      </trkpt>
      <trkpt lat="59.9523718" lon="17.7262497">
        <ele>48.2034</ele>
        <time>2014-06-16T20:26:59Z</time>
      </trkpt>
      <trkpt lat="59.952397" lon="17.7261992">
        <ele>47.7225</ele>
        <time>2014-06-16T20:27:00Z</time>
      </trkpt>
      <trkpt lat="59.9524295" lon="17.7261487">
        <ele>47.2418</ele>
        <time>2014-06-16T20:27:01Z</time>
      </trkpt>
      <trkpt lat="59.9524802" lon="17.7261">
        <ele>48.2034</ele>
        <time>2014-06-16T20:27:02Z</time>
      </trkpt>
      <trkpt lat="59.9525372" lon="17.7260451">
        <ele>47.7225</ele>
        <time>2014-06-16T20:27:03Z</time>
      </trkpt>
      <trkpt lat="59.9526008" lon="17.7259929">
        <ele>48.2034</ele>
        <time>2014-06-16T20:27:04Z</time>
      </trkpt>
      <trkpt lat="59.9526579" lon="17.7259591">
        <ele>49.1646</ele>
        <time>2014-06-16T20:27:05Z</time>
      </trkpt>
      <trkpt lat="59.9527004" lon="17.7259149">
        <ele>49.1646</ele>
        <time>2014-06-16T20:27:06Z</time>
      </trkpt>
      <trkpt lat="59.9527435" lon="17.7258612">
        <ele>48.684</ele>
        <time>2014-06-16T20:27:07Z</time>
      </trkpt>
      <trkpt lat="59.9527857" lon="17.725799">
        <ele>49.1646</ele>
        <time>2014-06-16T20:27:08Z</time>
      </trkpt>
      <trkpt lat="59.9528183" lon="17.7257496">
        <ele>49.6453</ele>
        <time>2014-06-16T20:27:09Z</time>
      </trkpt>
      <trkpt lat="59.9528391" lon="17.7257056">
        <ele>50.126</ele>
        <time>2014-06-16T20:27:10Z</time>
      </trkpt>
      <trkpt lat="59.952859" lon="17.7256706">
        <ele>50.126</ele>
        <time>2014-06-16T20:27:11Z</time>
      </trkpt>
      <trkpt lat="59.9528766" lon="17.7256359">
        <ele>50.6066</ele>
        <time>2014-06-16T20:27:12Z</time>
      </trkpt>
      <trkpt lat="59.9528888" lon="17.7256074">
        <ele>51.0872</ele>
        <time>2014-06-16T20:27:13Z</time>
      </trkpt>
      <trkpt lat="59.952903" lon="17.7255715">
        <ele>51.5679</ele>
        <time>2014-06-16T20:27:14Z</time>
      </trkpt>
      <trkpt lat="59.9529202" lon="17.7255306">
        <ele>52.0486</ele>
        <time>2014-06-16T20:27:15Z</time>
      </trkpt>
      <trkpt lat="59.9529328" lon="17.725497">
        <ele>52.0486</ele>
        <time>2014-06-16T20:27:16Z</time>
      </trkpt>
      <trkpt lat="59.9529449" lon="17.725467">
        <ele>52.0486</ele>
        <time>2014-06-16T20:27:17Z</time>
      </trkpt>
      <trkpt lat="59.952958" lon="17.7254367">
        <ele>52.0486</ele>
        <time>2014-06-16T20:27:18Z</time>
      </trkpt>
      <trkpt lat="59.9529713" lon="17.7254005">
        <ele>52.0486</ele>
        <time>2014-06-16T20:27:19Z</time>
      </trkpt>
      <trkpt lat="59.9529781" lon="17.7253621">
        <ele>50.126</ele>
        <time>2014-06-16T20:27:20Z</time>
      </trkpt>
      <trkpt lat="59.9529853" lon="17.7253109">
        <ele>48.684</ele>
        <time>2014-06-16T20:27:21Z</time>
      </trkpt>
      <trkpt lat="59.9529909" lon="17.7252563">
        <ele>47.7225</ele>
        <time>2014-06-16T20:27:22Z</time>
      </trkpt>
      <trkpt lat="59.9530015" lon="17.7252117">
        <ele>46.7612</ele>
        <time>2014-06-16T20:27:23Z</time>
      </trkpt>
      <trkpt lat="59.953019" lon="17.7251774">
        <ele>45.7999</ele>
        <time>2014-06-16T20:27:24Z</time>
      </trkpt>
      <trkpt lat="59.9530369" lon="17.7251452">
        <ele>44.8386</ele>
        <time>2014-06-16T20:27:25Z</time>
      </trkpt>
      <trkpt lat="59.9530578" lon="17.7251135">
        <ele>44.358</ele>
        <time>2014-06-16T20:27:26Z</time>
      </trkpt>
      <trkpt lat="59.9530682" lon="17.7250774">
        <ele>43.8773</ele>
        <time>2014-06-16T20:27:27Z</time>
      </trkpt>
      <trkpt lat="59.9530792" lon="17.7250478">
        <ele>43.3966</ele>
        <time>2014-06-16T20:27:28Z</time>
      </trkpt>
      <trkpt lat="59.9530925" lon="17.7250128">
        <ele>42.916</ele>
        <time>2014-06-16T20:27:29Z</time>
      </trkpt>
      <trkpt lat="59.9531065" lon="17.7249749">
        <ele>42.4354</ele>
        <time>2014-06-16T20:27:30Z</time>
      </trkpt>
      <trkpt lat="59.9531211" lon="17.724942">
        <ele>42.4354</ele>
        <time>2014-06-16T20:27:31Z</time>
      </trkpt>
      <trkpt lat="59.9531417" lon="17.7249048">
        <ele>42.4354</ele>
        <time>2014-06-16T20:27:32Z</time>
      </trkpt>
      <trkpt lat="59.9531619" lon="17.7248667">
        <ele>42.4354</ele>
        <time>2014-06-16T20:27:33Z</time>
      </trkpt>
      <trkpt lat="59.9531814" lon="17.7248309">
        <ele>42.916</ele>
        <time>2014-06-16T20:27:34Z</time>
      </trkpt>
      <trkpt lat="59.9532033" lon="17.7248017">
        <ele>43.8773</ele>
        <time>2014-06-16T20:27:35Z</time>
      </trkpt>
      <trkpt lat="59.9532231" lon="17.724762">
        <ele>43.3966</ele>
        <time>2014-06-16T20:27:36Z</time>
      </trkpt>
      <trkpt lat="59.9532442" lon="17.7247252">
        <ele>42.916</ele>
        <time>2014-06-16T20:27:37Z</time>
      </trkpt>
      <trkpt lat="59.9532655" lon="17.7246864">
        <ele>43.3966</ele>
        <time>2014-06-16T20:27:38Z</time>
      </trkpt>
      <trkpt lat="59.9532814" lon="17.7246365">
        <ele>42.916</ele>
        <time>2014-06-16T20:27:39Z</time>
      </trkpt>
      <trkpt lat="59.9532982" lon="17.7245936">
        <ele>42.4354</ele>
        <time>2014-06-16T20:27:40Z</time>
      </trkpt>
      <trkpt lat="59.9533164" lon="17.7245615">
        <ele>42.916</ele>
        <time>2014-06-16T20:27:41Z</time>
      </trkpt>
      <trkpt lat="59.9533359" lon="17.7245342">
        <ele>42.916</ele>
        <time>2014-06-16T20:27:42Z</time>
      </trkpt>
      <trkpt lat="59.9533541" lon="17.7245019">
        <ele>42.4354</ele>
        <time>2014-06-16T20:27:43Z</time>
      </trkpt>
      <trkpt lat="59.953368" lon="17.7244625">
        <ele>43.3966</ele>
        <time>2014-06-16T20:27:44Z</time>
      </trkpt>
      <trkpt lat="59.9533867" lon="17.7244219">
        <ele>43.8773</ele>
        <time>2014-06-16T20:27:45Z</time>
      </trkpt>
      <trkpt lat="59.9534075" lon="17.7243841">
        <ele>43.8773</ele>
        <time>2014-06-16T20:27:46Z</time>
      </trkpt>
      <trkpt lat="59.9534261" lon="17.7243398">
        <ele>44.358</ele>
        <time>2014-06-16T20:27:47Z</time>
      </trkpt>
      <trkpt lat="59.9534456" lon="17.7242937">
        <ele>44.358</ele>
        <time>2014-06-16T20:27:48Z</time>
      </trkpt>
      <trkpt lat="59.9534624" lon="17.7242459">
        <ele>44.358</ele>
        <time>2014-06-16T20:27:49Z</time>
      </trkpt>
      <trkpt lat="59.953478" lon="17.7242026">
        <ele>43.8773</ele>
        <time>2014-06-16T20:27:50Z</time>
      </trkpt>
      <trkpt lat="59.9534997" lon="17.7241658">
        <ele>44.358</ele>
        <time>2014-06-16T20:27:51Z</time>
      </trkpt>
      <trkpt lat="59.9535178" lon="17.7241175">
        <ele>43.8773</ele>
        <time>2014-06-16T20:27:52Z</time>
      </trkpt>
      <trkpt lat="59.9535407" lon="17.7240713">
        <ele>43.8773</ele>
        <time>2014-06-16T20:27:53Z</time>
      </trkpt>
      <trkpt lat="59.9535638" lon="17.7240329">
        <ele>43.8773</ele>
        <time>2014-06-16T20:27:54Z</time>
      </trkpt>
      <trkpt lat="59.9535861" lon="17.7239951">
        <ele>44.358</ele>
        <time>2014-06-16T20:27:55Z</time>
      </trkpt>
      <trkpt lat="59.9536022" lon="17.7239462">
        <ele>44.358</ele>
        <time>2014-06-16T20:27:56Z</time>
      </trkpt>
      <trkpt lat="59.9536189" lon="17.7238929">
        <ele>44.358</ele>
        <time>2014-06-16T20:27:57Z</time>
      </trkpt>
      <trkpt lat="59.9536354" lon="17.7238435">
        <ele>44.358</ele>
        <time>2014-06-16T20:27:58Z</time>
      </trkpt>
      <trkpt lat="59.9536511" lon="17.7238017">
        <ele>43.8773</ele>
        <time>2014-06-16T20:27:59Z</time>
      </trkpt>
      <trkpt lat="59.953673" lon="17.723762">
        <ele>44.358</ele>
        <time>2014-06-16T20:28:00Z</time>
      </trkpt>
      <trkpt lat="59.953702" lon="17.7237244">
        <ele>44.8386</ele>
        <time>2014-06-16T20:28:01Z</time>
      </trkpt>
      <trkpt lat="59.9537329" lon="17.7236969">
        <ele>44.8386</ele>
        <time>2014-06-16T20:28:02Z</time>
      </trkpt>
      <trkpt lat="59.9537635" lon="17.723673">
        <ele>44.8386</ele>
        <time>2014-06-16T20:28:03Z</time>
      </trkpt>
      <trkpt lat="59.9537908" lon="17.7236458">
        <ele>43.8773</ele>
        <time>2014-06-16T20:28:04Z</time>
      </trkpt>
      <trkpt lat="59.9538219" lon="17.7236193">
        <ele>43.8773</ele>
        <time>2014-06-16T20:28:05Z</time>
      </trkpt>
      <trkpt lat="59.9538457" lon="17.7235949">
        <ele>43.3966</ele>
        <time>2014-06-16T20:28:06Z</time>
      </trkpt>
      <trkpt lat="59.953868" lon="17.7235695">
        <ele>42.916</ele>
        <time>2014-06-16T20:28:07Z</time>
      </trkpt>
      <trkpt lat="59.9538831" lon="17.7235436">
        <ele>41.9547</ele>
        <time>2014-06-16T20:28:08Z</time>
      </trkpt>
      <trkpt lat="59.9539032" lon="17.7235187">
        <ele>41.9547</ele>
        <time>2014-06-16T20:28:09Z</time>
      </trkpt>
      <trkpt lat="59.9539209" lon="17.7234953">
        <ele>40.9934</ele>
        <time>2014-06-16T20:28:10Z</time>
      </trkpt>
      <trkpt lat="59.9539332" lon="17.7234645">
        <ele>40.0321</ele>
        <time>2014-06-16T20:28:11Z</time>
      </trkpt>
      <trkpt lat="59.9539565" lon="17.7234386">
        <ele>40.5128</ele>
        <time>2014-06-16T20:28:12Z</time>
      </trkpt>
      <trkpt lat="59.9539807" lon="17.7234111">
        <ele>40.5128</ele>
        <time>2014-06-16T20:28:13Z</time>
      </trkpt>
      <trkpt lat="59.9540006" lon="17.7233797">
        <ele>40.0321</ele>
        <time>2014-06-16T20:28:14Z</time>
      </trkpt>
      <trkpt lat="59.9540269" lon="17.7233624">
        <ele>40.5128</ele>
        <time>2014-06-16T20:28:15Z</time>
      </trkpt>
      <trkpt lat="59.9540574" lon="17.7233556">
        <ele>41.9547</ele>
        <time>2014-06-16T20:28:16Z</time>
      </trkpt>
      <trkpt lat="59.9540747" lon="17.7233395">
        <ele>41.474</ele>
        <time>2014-06-16T20:28:17Z</time>
      </trkpt>
      <trkpt lat="59.9540912" lon="17.723331">
        <ele>41.474</ele>
        <time>2014-06-16T20:28:18Z</time>
      </trkpt>
      <trkpt lat="59.9541123" lon="17.7233327">
        <ele>42.4354</ele>
        <time>2014-06-16T20:28:19Z</time>
      </trkpt>
      <trkpt lat="59.9541358" lon="17.7233328">
        <ele>43.3966</ele>
        <time>2014-06-16T20:28:20Z</time>
      </trkpt>
      <trkpt lat="59.9541515" lon="17.7233217">
        <ele>42.916</ele>
        <time>2014-06-16T20:28:21Z</time>
      </trkpt>
      <trkpt lat="59.9541603" lon="17.7233114">
        <ele>41.474</ele>
        <time>2014-06-16T20:28:22Z</time>
      </trkpt>
      <trkpt lat="59.9541794" lon="17.7233148">
        <ele>40.9934</ele>
        <time>2014-06-16T20:28:23Z</time>
      </trkpt>
      <trkpt lat="59.9541921" lon="17.7233224">
        <ele>40.0321</ele>
        <time>2014-06-16T20:28:24Z</time>
      </trkpt>
      <trkpt lat="59.9542105" lon="17.7233343">
        <ele>39.5513</ele>
        <time>2014-06-16T20:28:25Z</time>
      </trkpt>
      <trkpt lat="59.9542287" lon="17.7233488">
        <ele>38.5901</ele>
        <time>2014-06-16T20:28:26Z</time>
      </trkpt>
      <trkpt lat="59.9542558" lon="17.7233671">
        <ele>38.1094</ele>
        <time>2014-06-16T20:28:27Z</time>
      </trkpt>
      <trkpt lat="59.9542804" lon="17.7233805">
        <ele>38.5901</ele>
        <time>2014-06-16T20:28:28Z</time>
      </trkpt>
      <trkpt lat="59.954298" lon="17.7233927">
        <ele>37.1481</ele>
        <time>2014-06-16T20:28:29Z</time>
      </trkpt>
      <trkpt lat="59.9543202" lon="17.7234087">
        <ele>36.1868</ele>
        <time>2014-06-16T20:28:30Z</time>
      </trkpt>
      <trkpt lat="59.9543413" lon="17.7234175">
        <ele>35.7061</ele>
        <time>2014-06-16T20:28:31Z</time>
      </trkpt>
      <trkpt lat="59.9543605" lon="17.7234243">
        <ele>35.2255</ele>
        <time>2014-06-16T20:28:32Z</time>
      </trkpt>
      <trkpt lat="59.9543796" lon="17.7234409">
        <ele>34.7449</ele>
        <time>2014-06-16T20:28:33Z</time>
      </trkpt>
      <trkpt lat="59.9544016" lon="17.723453">
        <ele>34.2642</ele>
        <time>2014-06-16T20:28:34Z</time>
      </trkpt>
      <trkpt lat="59.9544224" lon="17.7234649">
        <ele>32.8223</ele>
        <time>2014-06-16T20:28:35Z</time>
      </trkpt>
      <trkpt lat="59.9544466" lon="17.7234823">
        <ele>32.3416</ele>
        <time>2014-06-16T20:28:36Z</time>
      </trkpt>
      <trkpt lat="59.9544644" lon="17.7234949">
        <ele>31.8607</ele>
        <time>2014-06-16T20:28:37Z</time>
      </trkpt>
      <trkpt lat="59.954485" lon="17.7235089">
        <ele>30.8995</ele>
        <time>2014-06-16T20:28:38Z</time>
      </trkpt>
      <trkpt lat="59.9545105" lon="17.7235377">
        <ele>30.8995</ele>
        <time>2014-06-16T20:28:39Z</time>
      </trkpt>
      <trkpt lat="59.9545392" lon="17.7235602">
        <ele>30.4188</ele>
        <time>2014-06-16T20:28:40Z</time>
      </trkpt>
      <trkpt lat="59.9545621" lon="17.7235825">
        <ele>30.4188</ele>
        <time>2014-06-16T20:28:41Z</time>
      </trkpt>
      <trkpt lat="59.9545833" lon="17.7236171">
        <ele>29.9381</ele>
        <time>2014-06-16T20:28:42Z</time>
      </trkpt>
      <trkpt lat="59.9545937" lon="17.7236413">
        <ele>29.4575</ele>
        <time>2014-06-16T20:28:43Z</time>
      </trkpt>
      <trkpt lat="59.9546113" lon="17.7236672">
        <ele>28.9769</ele>
        <time>2014-06-16T20:28:44Z</time>
      </trkpt>
      <trkpt lat="59.9546231" lon="17.7236881">
        <ele>28.4962</ele>
        <time>2014-06-16T20:28:45Z</time>
      </trkpt>
      <trkpt lat="59.9546407" lon="17.7237073">
        <ele>27.5349</ele>
        <time>2014-06-16T20:28:46Z</time>
      </trkpt>
      <trkpt lat="59.9546594" lon="17.723727">
        <ele>26.5736</ele>
        <time>2014-06-16T20:28:47Z</time>
      </trkpt>
      <trkpt lat="59.9546767" lon="17.7237402">
        <ele>25.1317</ele>
        <time>2014-06-16T20:28:48Z</time>
      </trkpt>
      <trkpt lat="59.9546937" lon="17.723756">
        <ele>24.1703</ele>
        <time>2014-06-16T20:28:49Z</time>
      </trkpt>
      <trkpt lat="59.954722" lon="17.7237729">
        <ele>23.6896</ele>
        <time>2014-06-16T20:28:50Z</time>
      </trkpt>
      <trkpt lat="59.9547458" lon="17.7237762">
        <ele>22.7283</ele>
        <time>2014-06-16T20:28:51Z</time>
      </trkpt>
      <trkpt lat="59.954771" lon="17.7237772">
        <ele>22.2476</ele>
        <time>2014-06-16T20:28:52Z</time>
      </trkpt>
      <trkpt lat="59.9547978" lon="17.7237701">
        <ele>21.2864</ele>
        <time>2014-06-16T20:28:53Z</time>
      </trkpt>
      <trkpt lat="59.9548263" lon="17.7237695">
        <ele>20.325</ele>
        <time>2014-06-16T20:28:54Z</time>
      </trkpt>
      <trkpt lat="59.9548515" lon="17.7237594">
        <ele>19.3638</ele>
        <time>2014-06-16T20:28:55Z</time>
      </trkpt>
      <trkpt lat="59.9548724" lon="17.7237604">
        <ele>17.4412</ele>
        <time>2014-06-16T20:28:56Z</time>
      </trkpt>
      <trkpt lat="59.9549019" lon="17.7237673">
        <ele>17.4412</ele>
        <time>2014-06-16T20:28:57Z</time>
      </trkpt>
      <trkpt lat="59.9549253" lon="17.7237668">
        <ele>16.4797</ele>
        <time>2014-06-16T20:28:58Z</time>
      </trkpt>
      <trkpt lat="59.9549481" lon="17.723745">
        <ele>15.0377</ele>
        <time>2014-06-16T20:28:59Z</time>
      </trkpt>
      <trkpt lat="59.9549672" lon="17.7237197">
        <ele>13.5958</ele>
        <time>2014-06-16T20:29:00Z</time>
      </trkpt>
      <trkpt lat="59.9549938" lon="17.7237093">
        <ele>13.1151</ele>
        <time>2014-06-16T20:29:01Z</time>
      </trkpt>
      <trkpt lat="59.9550119" lon="17.7236973">
        <ele>12.1538</ele>
        <time>2014-06-16T20:29:02Z</time>
      </trkpt>
      <trkpt lat="59.9550314" lon="17.72367">
        <ele>11.1925</ele>
        <time>2014-06-16T20:29:03Z</time>
      </trkpt>
      <trkpt lat="59.9550495" lon="17.7236451">
        <ele>9.75061</ele>
        <time>2014-06-16T20:29:04Z</time>
      </trkpt>
      <trkpt lat="59.9550688" lon="17.7236256">
        <ele>9.2699</ele>
        <time>2014-06-16T20:29:05Z</time>
      </trkpt>
      <trkpt lat="59.9550905" lon="17.7236098">
        <ele>9.2699</ele>
        <time>2014-06-16T20:29:06Z</time>
      </trkpt>
      <trkpt lat="59.9551092" lon="17.7235935">
        <ele>8.78918</ele>
        <time>2014-06-16T20:29:07Z</time>
      </trkpt>
      <trkpt lat="59.9551302" lon="17.7235843">
        <ele>8.30859</ele>
        <time>2014-06-16T20:29:08Z</time>
      </trkpt>
      <trkpt lat="59.9551501" lon="17.7235782">
        <ele>7.82788</ele>
        <time>2014-06-16T20:29:09Z</time>
      </trkpt>
      <trkpt lat="59.955175" lon="17.7235828">
        <ele>7.82788</ele>
        <time>2014-06-16T20:29:10Z</time>
      </trkpt>
      <trkpt lat="59.9551949" lon="17.7235783">
        <ele>6.86646</ele>
        <time>2014-06-16T20:29:11Z</time>
      </trkpt>
      <trkpt lat="59.9552178" lon="17.7235825">
        <ele>6.86646</ele>
        <time>2014-06-16T20:29:12Z</time>
      </trkpt>
      <trkpt lat="59.9552392" lon="17.7235892">
        <ele>5.90527</ele>
        <time>2014-06-16T20:29:13Z</time>
      </trkpt>
      <trkpt lat="59.9552659" lon="17.7236102">
        <ele>6.38586</ele>
        <time>2014-06-16T20:29:14Z</time>
      </trkpt>
      <trkpt lat="59.9552898" lon="17.7236278">
        <ele>4.94385</ele>
        <time>2014-06-16T20:29:15Z</time>
      </trkpt>
      <trkpt lat="59.955321" lon="17.723644">
        <ele>5.42456</ele>
        <time>2014-06-16T20:29:16Z</time>
      </trkpt>
      <trkpt lat="59.9553463" lon="17.7236465">
        <ele>5.90527</ele>
        <time>2014-06-16T20:29:17Z</time>
      </trkpt>
      <trkpt lat="59.9553723" lon="17.7236664">
        <ele>5.42456</ele>
        <time>2014-06-16T20:29:18Z</time>
      </trkpt>
      <trkpt lat="59.9554002" lon="17.7236861">
        <ele>4.94385</ele>
        <time>2014-06-16T20:29:19Z</time>
      </trkpt>
      <trkpt lat="59.9554194" lon="17.7237152">
        <ele>4.46326</ele>
        <time>2014-06-16T20:29:20Z</time>
      </trkpt>
      <trkpt lat="59.9554431" lon="17.7237404">
        <ele>3.98267</ele>
        <time>2014-06-16T20:29:21Z</time>
      </trkpt>
      <trkpt lat="59.9554635" lon="17.7237638">
        <ele>3.98267</ele>
        <time>2014-06-16T20:29:22Z</time>
      </trkpt>
      <trkpt lat="59.9554863" lon="17.7237866">
        <ele>3.98267</ele>
        <time>2014-06-16T20:29:23Z</time>
      </trkpt>
      <trkpt lat="59.9555141" lon="17.7238047">
        <ele>3.98267</ele>
        <time>2014-06-16T20:29:24Z</time>
      </trkpt>
      <trkpt lat="59.9555386" lon="17.7238138">
        <ele>3.98267</ele>
        <time>2014-06-16T20:29:25Z</time>
      </trkpt>
      <trkpt lat="59.9555641" lon="17.7238264">
        <ele>3.98267</ele>
        <time>2014-06-16T20:29:26Z</time>
      </trkpt>
      <trkpt lat="59.9555923" lon="17.7238354">
        <ele>4.46326</ele>
        <time>2014-06-16T20:29:27Z</time>
      </trkpt>
      <trkpt lat="59.9556142" lon="17.7238333">
        <ele>3.98267</ele>
        <time>2014-06-16T20:29:28Z</time>
      </trkpt>
      <trkpt lat="59.9556432" lon="17.7238259">
        <ele>4.94385</ele>
        <time>2014-06-16T20:29:29Z</time>
      </trkpt>
      <trkpt lat="59.9556629" lon="17.7238083">
        <ele>4.46326</ele>
        <time>2014-06-16T20:29:30Z</time>
      </trkpt>
      <trkpt lat="59.9556915" lon="17.7237799">
        <ele>6.38586</ele>
        <time>2014-06-16T20:29:31Z</time>
      </trkpt>
      <trkpt lat="59.9557209" lon="17.7237436">
        <ele>8.78918</ele>
        <time>2014-06-16T20:29:32Z</time>
      </trkpt>
      <trkpt lat="59.9557401" lon="17.7237037">
        <ele>9.2699</ele>
        <time>2014-06-16T20:29:33Z</time>
      </trkpt>
      <trkpt lat="59.9557603" lon="17.7236626">
        <ele>10.7118</ele>
        <time>2014-06-16T20:29:34Z</time>
      </trkpt>
      <trkpt lat="59.9557764" lon="17.7236152">
        <ele>11.1925</ele>
        <time>2014-06-16T20:29:35Z</time>
      </trkpt>
      <trkpt lat="59.9557939" lon="17.7235641">
        <ele>12.1538</ele>
        <time>2014-06-16T20:29:36Z</time>
      </trkpt>
      <trkpt lat="59.9558012" lon="17.7235099">
        <ele>12.6344</ele>
        <time>2014-06-16T20:29:37Z</time>
      </trkpt>
      <trkpt lat="59.9557986" lon="17.7234622">
        <ele>12.6344</ele>
        <time>2014-06-16T20:29:38Z</time>
      </trkpt>
      <trkpt lat="59.9558022" lon="17.7234131">
        <ele>12.6344</ele>
        <time>2014-06-16T20:29:39Z</time>
      </trkpt>
      <trkpt lat="59.9558143" lon="17.7233814">
        <ele>14.0764</ele>
        <time>2014-06-16T20:29:40Z</time>
      </trkpt>
      <trkpt lat="59.9558116" lon="17.7233525">
        <ele>14.557</ele>
        <time>2014-06-16T20:29:41Z</time>
      </trkpt>
      <trkpt lat="59.9558145" lon="17.7233">
        <ele>15.0377</ele>
        <time>2014-06-16T20:29:42Z</time>
      </trkpt>
      <trkpt lat="59.9558173" lon="17.723242">
        <ele>15.999</ele>
        <time>2014-06-16T20:29:43Z</time>
      </trkpt>
      <trkpt lat="59.9558526" lon="17.7231463">
        <ele>22.2476</ele>
        <time>2014-06-16T20:29:44Z</time>
      </trkpt>
      <trkpt lat="59.955863" lon="17.7230904">
        <ele>23.6896</ele>
        <time>2014-06-16T20:29:45Z</time>
      </trkpt>
      <trkpt lat="59.9558609" lon="17.7230348">
        <ele>24.1703</ele>
        <time>2014-06-16T20:29:46Z</time>
      </trkpt>
      <trkpt lat="59.9558727" lon="17.7229544">
        <ele>28.4962</ele>
        <time>2014-06-16T20:29:47Z</time>
      </trkpt>
      <trkpt lat="59.9559" lon="17.7228887">
        <ele>34.7449</ele>
        <time>2014-06-16T20:29:48Z</time>
      </trkpt>
      <trkpt lat="59.9559112" lon="17.7228382">
        <ele>37.6287</ele>
        <time>2014-06-16T20:29:49Z</time>
      </trkpt>
      <trkpt lat="59.9559142" lon="17.72277">
        <ele>40.5128</ele>
        <time>2014-06-16T20:29:50Z</time>
      </trkpt>
      <trkpt lat="59.9559099" lon="17.7227013">
        <ele>42.4354</ele>
        <time>2014-06-16T20:29:51Z</time>
      </trkpt>
      <trkpt lat="59.9559094" lon="17.722648">
        <ele>45.3192</ele>
        <time>2014-06-16T20:29:52Z</time>
      </trkpt>
      <trkpt lat="59.9559052" lon="17.7226024">
        <ele>47.2418</ele>
        <time>2014-06-16T20:29:53Z</time>
      </trkpt>
      <trkpt lat="59.9558994" lon="17.7225548">
        <ele>48.684</ele>
        <time>2014-06-16T20:29:54Z</time>
      </trkpt>
      <trkpt lat="59.9558902" lon="17.7225055">
        <ele>50.6066</ele>
        <time>2014-06-16T20:29:55Z</time>
      </trkpt>
      <trkpt lat="59.9558784" lon="17.7224447">
        <ele>52.0486</ele>
        <time>2014-06-16T20:29:56Z</time>
      </trkpt>
      <trkpt lat="59.955878" lon="17.7223847">
        <ele>53.9712</ele>
        <time>2014-06-16T20:29:57Z</time>
      </trkpt>
      <trkpt lat="59.9558766" lon="17.722328">
        <ele>54.9324</ele>
        <time>2014-06-16T20:29:58Z</time>
      </trkpt>
      <trkpt lat="59.9558764" lon="17.7222766">
        <ele>55.4131</ele>
        <time>2014-06-16T20:29:59Z</time>
      </trkpt>
      <trkpt lat="59.9558863" lon="17.7222191">
        <ele>56.3745</ele>
        <time>2014-06-16T20:30:00Z</time>
      </trkpt>
      <trkpt lat="59.9558894" lon="17.7221657">
        <ele>56.8551</ele>
        <time>2014-06-16T20:30:01Z</time>
      </trkpt>
      <trkpt lat="59.9558835" lon="17.7221062">
        <ele>56.8551</ele>
        <time>2014-06-16T20:30:02Z</time>
      </trkpt>
      <trkpt lat="59.9558831" lon="17.7220398">
        <ele>57.3358</ele>
        <time>2014-06-16T20:30:03Z</time>
      </trkpt>
      <trkpt lat="59.9558836" lon="17.7219752">
        <ele>58.2971</ele>
        <time>2014-06-16T20:30:04Z</time>
      </trkpt>
      <trkpt lat="59.9558831" lon="17.7219179">
        <ele>57.8165</ele>
        <time>2014-06-16T20:30:05Z</time>
      </trkpt>
      <trkpt lat="59.9558836" lon="17.7218664">
        <ele>57.8165</ele>
        <time>2014-06-16T20:30:06Z</time>
      </trkpt>
      <trkpt lat="59.9558855" lon="17.7218078">
        <ele>58.2971</ele>
        <time>2014-06-16T20:30:07Z</time>
      </trkpt>
      <trkpt lat="59.9558917" lon="17.7217496">
        <ele>59.2584</ele>
        <time>2014-06-16T20:30:08Z</time>
      </trkpt>
      <trkpt lat="59.9559022" lon="17.7216983">
        <ele>59.7391</ele>
        <time>2014-06-16T20:30:09Z</time>
      </trkpt>
      <trkpt lat="59.9559079" lon="17.7216447">
        <ele>60.2197</ele>
        <time>2014-06-16T20:30:10Z</time>
      </trkpt>
      <trkpt lat="59.95591" lon="17.7215922">
        <ele>61.181</ele>
        <time>2014-06-16T20:30:11Z</time>
      </trkpt>
      <trkpt lat="59.9559181" lon="17.7215465">
        <ele>61.6617</ele>
        <time>2014-06-16T20:30:12Z</time>
      </trkpt>
      <trkpt lat="59.9559228" lon="17.7215007">
        <ele>62.1423</ele>
        <time>2014-06-16T20:30:13Z</time>
      </trkpt>
      <trkpt lat="59.9559267" lon="17.721456">
        <ele>61.6617</ele>
        <time>2014-06-16T20:30:14Z</time>
      </trkpt>
      <trkpt lat="59.9559336" lon="17.7214099">
        <ele>61.6617</ele>
        <time>2014-06-16T20:30:15Z</time>
      </trkpt>
      <trkpt lat="59.9559373" lon="17.7213565">
        <ele>62.1423</ele>
        <time>2014-06-16T20:30:16Z</time>
      </trkpt>
      <trkpt lat="59.9559329" lon="17.7213141">
        <ele>61.6617</ele>
        <time>2014-06-16T20:30:17Z</time>
      </trkpt>
      <trkpt lat="59.9559188" lon="17.7212799">
        <ele>61.6617</ele>
        <time>2014-06-16T20:30:18Z</time>
      </trkpt>
      <trkpt lat="59.9558954" lon="17.721259">
        <ele>60.7003</ele>
        <time>2014-06-16T20:30:19Z</time>
      </trkpt>
      <trkpt lat="59.9558708" lon="17.7212463">
        <ele>60.7003</ele>
        <time>2014-06-16T20:30:20Z</time>
      </trkpt>
      <trkpt lat="59.9558437" lon="17.7212391">
        <ele>60.2197</ele>
        <time>2014-06-16T20:30:21Z</time>
      </trkpt>
      <trkpt lat="59.9558135" lon="17.721237">
        <ele>59.7391</ele>
        <time>2014-06-16T20:30:22Z</time>
      </trkpt>
      <trkpt lat="59.9557853" lon="17.7212292">
        <ele>59.7391</ele>
        <time>2014-06-16T20:30:23Z</time>
      </trkpt>
      <trkpt lat="59.9557593" lon="17.7212282">
        <ele>59.2584</ele>
        <time>2014-06-16T20:30:24Z</time>
      </trkpt>
      <trkpt lat="59.9557334" lon="17.7212321">
        <ele>58.7777</ele>
        <time>2014-06-16T20:30:25Z</time>
      </trkpt>
      <trkpt lat="59.9557049" lon="17.7212349">
        <ele>59.2584</ele>
        <time>2014-06-16T20:30:26Z</time>
      </trkpt>
      <trkpt lat="59.9556811" lon="17.7212354">
        <ele>59.2584</ele>
        <time>2014-06-16T20:30:27Z</time>
      </trkpt>
      <trkpt lat="59.9556551" lon="17.7212476">
        <ele>59.2584</ele>
        <time>2014-06-16T20:30:28Z</time>
      </trkpt>
      <trkpt lat="59.9556296" lon="17.7212559">
        <ele>59.2584</ele>
        <time>2014-06-16T20:30:29Z</time>
      </trkpt>
      <trkpt lat="59.9556008" lon="17.7212695">
        <ele>59.7391</ele>
        <time>2014-06-16T20:30:30Z</time>
      </trkpt>
      <trkpt lat="59.9555739" lon="17.7212783">
        <ele>60.7003</ele>
        <time>2014-06-16T20:30:31Z</time>
      </trkpt>
      <trkpt lat="59.9555479" lon="17.7212864">
        <ele>59.7391</ele>
        <time>2014-06-16T20:30:32Z</time>
      </trkpt>
      <trkpt lat="59.9555142" lon="17.721282">
        <ele>61.181</ele>
        <time>2014-06-16T20:30:33Z</time>
      </trkpt>
      <trkpt lat="59.9554848" lon="17.7212864">
        <ele>61.181</ele>
        <time>2014-06-16T20:30:34Z</time>
      </trkpt>
      <trkpt lat="59.9554605" lon="17.7213059">
        <ele>61.181</ele>
        <time>2014-06-16T20:30:35Z</time>
      </trkpt>
      <trkpt lat="59.9554345" lon="17.7213151">
        <ele>61.6617</ele>
        <time>2014-06-16T20:30:36Z</time>
      </trkpt>
      <trkpt lat="59.9554089" lon="17.7213204">
        <ele>62.6229</ele>
        <time>2014-06-16T20:30:37Z</time>
      </trkpt>
      <trkpt lat="59.9553859" lon="17.7213163">
        <ele>63.1036</ele>
        <time>2014-06-16T20:30:38Z</time>
      </trkpt>
      <trkpt lat="59.9553683" lon="17.7213161">
        <ele>63.1036</ele>
        <time>2014-06-16T20:30:39Z</time>
      </trkpt>
      <trkpt lat="59.9553485" lon="17.7213203">
        <ele>63.5844</ele>
        <time>2014-06-16T20:30:40Z</time>
      </trkpt>
      <trkpt lat="59.9553289" lon="17.721325">
        <ele>64.0651</ele>
        <time>2014-06-16T20:30:41Z</time>
      </trkpt>
      <trkpt lat="59.955311" lon="17.7213188">
        <ele>64.0651</ele>
        <time>2014-06-16T20:30:42Z</time>
      </trkpt>
      <trkpt lat="59.9552904" lon="17.7213187">
        <ele>64.0651</ele>
        <time>2014-06-16T20:30:43Z</time>
      </trkpt>
      <trkpt lat="59.9552701" lon="17.7213224">
        <ele>64.0651</ele>
        <time>2014-06-16T20:30:44Z</time>
      </trkpt>
      <trkpt lat="59.9552453" lon="17.7213204">
        <ele>64.5457</ele>
        <time>2014-06-16T20:30:45Z</time>
      </trkpt>
      <trkpt lat="59.95522" lon="17.7213158">
        <ele>65.0264</ele>
        <time>2014-06-16T20:30:46Z</time>
      </trkpt>
      <trkpt lat="59.955193" lon="17.721308">
        <ele>65.5071</ele>
        <time>2014-06-16T20:30:47Z</time>
      </trkpt>
      <trkpt lat="59.9551673" lon="17.7213115">
        <ele>65.5071</ele>
        <time>2014-06-16T20:30:48Z</time>
      </trkpt>
      <trkpt lat="59.9551356" lon="17.7213104">
        <ele>65.5071</ele>
        <time>2014-06-16T20:30:49Z</time>
      </trkpt>
      <trkpt lat="59.9551029" lon="17.7213142">
        <ele>65.9877</ele>
        <time>2014-06-16T20:30:50Z</time>
      </trkpt>
      <trkpt lat="59.9550708" lon="17.721324">
        <ele>67.4297</ele>
        <time>2014-06-16T20:30:51Z</time>
      </trkpt>
      <trkpt lat="59.9550448" lon="17.721332">
        <ele>66.949</ele>
        <time>2014-06-16T20:30:52Z</time>
      </trkpt>
      <trkpt lat="59.9550158" lon="17.7213354">
        <ele>67.9103</ele>
        <time>2014-06-16T20:30:53Z</time>
      </trkpt>
      <trkpt lat="59.9549864" lon="17.7213317">
        <ele>68.3909</ele>
        <time>2014-06-16T20:30:54Z</time>
      </trkpt>
      <trkpt lat="59.9549614" lon="17.7213243">
        <ele>68.3909</ele>
        <time>2014-06-16T20:30:55Z</time>
      </trkpt>
      <trkpt lat="59.9549402" lon="17.7213118">
        <ele>67.9103</ele>
        <time>2014-06-16T20:30:56Z</time>
      </trkpt>
      <trkpt lat="59.9549137" lon="17.7212986">
        <ele>68.3909</ele>
        <time>2014-06-16T20:30:57Z</time>
      </trkpt>
      <trkpt lat="59.9548933" lon="17.7212864">
        <ele>68.8716</ele>
        <time>2014-06-16T20:30:58Z</time>
      </trkpt>
      <trkpt lat="59.954875" lon="17.7212684">
        <ele>67.9103</ele>
        <time>2014-06-16T20:30:59Z</time>
      </trkpt>
      <trkpt lat="59.9548532" lon="17.7212431">
        <ele>67.4297</ele>
        <time>2014-06-16T20:31:00Z</time>
      </trkpt>
      <trkpt lat="59.9548372" lon="17.721212">
        <ele>66.4683</ele>
        <time>2014-06-16T20:31:01Z</time>
      </trkpt>
      <trkpt lat="59.9548251" lon="17.7211709">
        <ele>65.0264</ele>
        <time>2014-06-16T20:31:02Z</time>
      </trkpt>
      <trkpt lat="59.9548086" lon="17.721124">
        <ele>64.0651</ele>
        <time>2014-06-16T20:31:03Z</time>
      </trkpt>
      <trkpt lat="59.9547927" lon="17.7210773">
        <ele>62.6229</ele>
        <time>2014-06-16T20:31:04Z</time>
      </trkpt>
      <trkpt lat="59.9547811" lon="17.7210231">
        <ele>61.6617</ele>
        <time>2014-06-16T20:31:05Z</time>
      </trkpt>
      <trkpt lat="59.9547694" lon="17.7209696">
        <ele>61.181</ele>
        <time>2014-06-16T20:31:06Z</time>
      </trkpt>
      <trkpt lat="59.95476" lon="17.7209155">
        <ele>60.7003</ele>
        <time>2014-06-16T20:31:07Z</time>
      </trkpt>
      <trkpt lat="59.9547555" lon="17.7208562">
        <ele>59.7391</ele>
        <time>2014-06-16T20:31:08Z</time>
      </trkpt>
      <trkpt lat="59.9547638" lon="17.7207923">
        <ele>58.7777</ele>
        <time>2014-06-16T20:31:09Z</time>
      </trkpt>
      <trkpt lat="59.9547788" lon="17.7207344">
        <ele>57.8165</ele>
        <time>2014-06-16T20:31:10Z</time>
      </trkpt>
      <trkpt lat="59.9547921" lon="17.7206842">
        <ele>56.8551</ele>
        <time>2014-06-16T20:31:11Z</time>
      </trkpt>
      <trkpt lat="59.9548116" lon="17.7206433">
        <ele>56.3745</ele>
        <time>2014-06-16T20:31:12Z</time>
      </trkpt>
      <trkpt lat="59.9548285" lon="17.7205991">
        <ele>55.8938</ele>
        <time>2014-06-16T20:31:13Z</time>
      </trkpt>
      <trkpt lat="59.9548456" lon="17.7205582">
        <ele>55.8938</ele>
        <time>2014-06-16T20:31:14Z</time>
      </trkpt>
      <trkpt lat="59.9548646" lon="17.7205265">
        <ele>55.4131</ele>
        <time>2014-06-16T20:31:15Z</time>
      </trkpt>
      <trkpt lat="59.954885" lon="17.7205003">
        <ele>55.4131</ele>
        <time>2014-06-16T20:31:16Z</time>
      </trkpt>
      <trkpt lat="59.954907" lon="17.7204763">
        <ele>54.9324</ele>
        <time>2014-06-16T20:31:17Z</time>
      </trkpt>
      <trkpt lat="59.9549295" lon="17.7204615">
        <ele>54.4518</ele>
        <time>2014-06-16T20:31:18Z</time>
      </trkpt>
      <trkpt lat="59.9549496" lon="17.7204535">
        <ele>53.9712</ele>
        <time>2014-06-16T20:31:19Z</time>
      </trkpt>
      <trkpt lat="59.9549715" lon="17.7204366">
        <ele>53.4905</ele>
        <time>2014-06-16T20:31:20Z</time>
      </trkpt>
      <trkpt lat="59.9549967" lon="17.7204124">
        <ele>53.4905</ele>
        <time>2014-06-16T20:31:21Z</time>
      </trkpt>
      <trkpt lat="59.9550267" lon="17.7203774">
        <ele>53.9712</ele>
        <time>2014-06-16T20:31:22Z</time>
      </trkpt>
      <trkpt lat="59.95506" lon="17.7203457">
        <ele>53.9712</ele>
        <time>2014-06-16T20:31:23Z</time>
      </trkpt>
      <trkpt lat="59.9550911" lon="17.7203209">
        <ele>53.4905</ele>
        <time>2014-06-16T20:31:24Z</time>
      </trkpt>
      <trkpt lat="59.95512" lon="17.7202844">
        <ele>53.4905</ele>
        <time>2014-06-16T20:31:25Z</time>
      </trkpt>
      <trkpt lat="59.9551464" lon="17.720246">
        <ele>53.4905</ele>
        <time>2014-06-16T20:31:26Z</time>
      </trkpt>
      <trkpt lat="59.9551699" lon="17.7202101">
        <ele>53.4905</ele>
        <time>2014-06-16T20:31:27Z</time>
      </trkpt>
      <trkpt lat="59.9551891" lon="17.7201772">
        <ele>53.9712</ele>
        <time>2014-06-16T20:31:28Z</time>
      </trkpt>
      <trkpt lat="59.955207" lon="17.7201536">
        <ele>53.0098</ele>
        <time>2014-06-16T20:31:29Z</time>
      </trkpt>
      <trkpt lat="59.955233" lon="17.720138">
        <ele>53.0098</ele>
        <time>2014-06-16T20:31:30Z</time>
      </trkpt>
      <trkpt lat="59.9552497" lon="17.720117">
        <ele>52.5292</ele>
        <time>2014-06-16T20:31:31Z</time>
      </trkpt>
      <trkpt lat="59.9552644" lon="17.7200876">
        <ele>52.5292</ele>
        <time>2014-06-16T20:31:32Z</time>
      </trkpt>
      <trkpt lat="59.9552831" lon="17.7200595">
        <ele>52.0486</ele>
        <time>2014-06-16T20:31:33Z</time>
      </trkpt>
      <trkpt lat="59.9553039" lon="17.7200315">
        <ele>52.0486</ele>
        <time>2014-06-16T20:31:34Z</time>
      </trkpt>
      <trkpt lat="59.9553271" lon="17.7200021">
        <ele>52.5292</ele>
        <time>2014-06-16T20:31:35Z</time>
      </trkpt>
      <trkpt lat="59.9553535" lon="17.7199781">
        <ele>52.5292</ele>
        <time>2014-06-16T20:31:36Z</time>
      </trkpt>
      <trkpt lat="59.9553814" lon="17.7199505">
        <ele>53.0098</ele>
        <time>2014-06-16T20:31:37Z</time>
      </trkpt>
      <trkpt lat="59.9554042" lon="17.7199222">
        <ele>53.4905</ele>
        <time>2014-06-16T20:31:38Z</time>
      </trkpt>
      <trkpt lat="59.9554245" lon="17.7198976">
        <ele>53.4905</ele>
        <time>2014-06-16T20:31:39Z</time>
      </trkpt>
      <trkpt lat="59.9554472" lon="17.7198787">
        <ele>53.4905</ele>
        <time>2014-06-16T20:31:40Z</time>
      </trkpt>
      <trkpt lat="59.955476" lon="17.7198585">
        <ele>53.4905</ele>
        <time>2014-06-16T20:31:41Z</time>
      </trkpt>
      <trkpt lat="59.9555053" lon="17.7198477">
        <ele>53.4905</ele>
        <time>2014-06-16T20:31:42Z</time>
      </trkpt>
      <trkpt lat="59.955528" lon="17.7198355">
        <ele>53.4905</ele>
        <time>2014-06-16T20:31:43Z</time>
      </trkpt>
      <trkpt lat="59.9555545" lon="17.7198339">
        <ele>52.5292</ele>
        <time>2014-06-16T20:31:44Z</time>
      </trkpt>
      <trkpt lat="59.9555796" lon="17.7198275">
        <ele>52.0486</ele>
        <time>2014-06-16T20:31:45Z</time>
      </trkpt>
      <trkpt lat="59.9556039" lon="17.7198159">
        <ele>52.5292</ele>
        <time>2014-06-16T20:31:46Z</time>
      </trkpt>
      <trkpt lat="59.9556255" lon="17.7197951">
        <ele>52.0486</ele>
        <time>2014-06-16T20:31:47Z</time>
      </trkpt>
      <trkpt lat="59.955656" lon="17.7197729">
        <ele>52.0486</ele>
        <time>2014-06-16T20:31:48Z</time>
      </trkpt>
      <trkpt lat="59.955694" lon="17.719743">
        <ele>52.0486</ele>
        <time>2014-06-16T20:31:49Z</time>
      </trkpt>
      <trkpt lat="59.9557287" lon="17.7197166">
        <ele>51.5679</ele>
        <time>2014-06-16T20:31:50Z</time>
      </trkpt>
      <trkpt lat="59.9557655" lon="17.7196951">
        <ele>51.5679</ele>
        <time>2014-06-16T20:31:51Z</time>
      </trkpt>
      <trkpt lat="59.9557945" lon="17.7196741">
        <ele>51.5679</ele>
        <time>2014-06-16T20:31:52Z</time>
      </trkpt>
      <trkpt lat="59.955821" lon="17.7196492">
        <ele>52.0486</ele>
        <time>2014-06-16T20:31:53Z</time>
      </trkpt>
      <trkpt lat="59.9558406" lon="17.7196154">
        <ele>52.0486</ele>
        <time>2014-06-16T20:31:54Z</time>
      </trkpt>
      <trkpt lat="59.9558572" lon="17.7195791">
        <ele>51.5679</ele>
        <time>2014-06-16T20:31:55Z</time>
      </trkpt>
      <trkpt lat="59.9558789" lon="17.7195518">
        <ele>51.5679</ele>
        <time>2014-06-16T20:31:56Z</time>
      </trkpt>
      <trkpt lat="59.9559085" lon="17.7195309">
        <ele>52.0486</ele>
        <time>2014-06-16T20:31:57Z</time>
      </trkpt>
      <trkpt lat="59.9559379" lon="17.7195119">
        <ele>52.5292</ele>
        <time>2014-06-16T20:31:58Z</time>
      </trkpt>
      <trkpt lat="59.9559593" lon="17.7194794">
        <ele>52.0486</ele>
        <time>2014-06-16T20:31:59Z</time>
      </trkpt>
      <trkpt lat="59.955979" lon="17.7194446">
        <ele>52.0486</ele>
        <time>2014-06-16T20:32:00Z</time>
      </trkpt>
      <trkpt lat="59.9559985" lon="17.7194147">
        <ele>52.0486</ele>
        <time>2014-06-16T20:32:01Z</time>
      </trkpt>
      <trkpt lat="59.9560193" lon="17.7193788">
        <ele>52.0486</ele>
        <time>2014-06-16T20:32:02Z</time>
      </trkpt>
      <trkpt lat="59.9560416" lon="17.7193497">
        <ele>52.5292</ele>
        <time>2014-06-16T20:32:03Z</time>
      </trkpt>
      <trkpt lat="59.9560696" lon="17.7193187">
        <ele>53.9712</ele>
        <time>2014-06-16T20:32:04Z</time>
      </trkpt>
      <trkpt lat="59.9560907" lon="17.719286">
        <ele>54.4518</ele>
        <time>2014-06-16T20:32:05Z</time>
      </trkpt>
      <trkpt lat="59.9561108" lon="17.7192489">
        <ele>54.9324</ele>
        <time>2014-06-16T20:32:06Z</time>
      </trkpt>
      <trkpt lat="59.956131" lon="17.7192059">
        <ele>54.4518</ele>
        <time>2014-06-16T20:32:07Z</time>
      </trkpt>
      <trkpt lat="59.9561502" lon="17.7191629">
        <ele>54.9324</ele>
        <time>2014-06-16T20:32:08Z</time>
      </trkpt>
      <trkpt lat="59.9561621" lon="17.7191219">
        <ele>55.4131</ele>
        <time>2014-06-16T20:32:09Z</time>
      </trkpt>
      <trkpt lat="59.9561819" lon="17.7190696">
        <ele>55.4131</ele>
        <time>2014-06-16T20:32:10Z</time>
      </trkpt>
      <trkpt lat="59.9562044" lon="17.7190141">
        <ele>55.4131</ele>
        <time>2014-06-16T20:32:11Z</time>
      </trkpt>
      <trkpt lat="59.9562172" lon="17.7189619">
        <ele>56.3745</ele>
        <time>2014-06-16T20:32:12Z</time>
      </trkpt>
      <trkpt lat="59.9562217" lon="17.7189051">
        <ele>56.8551</ele>
        <time>2014-06-16T20:32:13Z</time>
      </trkpt>
      <trkpt lat="59.956223" lon="17.7188406">
        <ele>56.3745</ele>
        <time>2014-06-16T20:32:14Z</time>
      </trkpt>
      <trkpt lat="59.9562229" lon="17.718765">
        <ele>56.8551</ele>
        <time>2014-06-16T20:32:15Z</time>
      </trkpt>
      <trkpt lat="59.9562202" lon="17.718685">
        <ele>57.3358</ele>
        <time>2014-06-16T20:32:16Z</time>
      </trkpt>
      <trkpt lat="59.9562146" lon="17.7186154">
        <ele>57.8165</ele>
        <time>2014-06-16T20:32:17Z</time>
      </trkpt>
      <trkpt lat="59.9562017" lon="17.7185498">
        <ele>57.8165</ele>
        <time>2014-06-16T20:32:18Z</time>
      </trkpt>
      <trkpt lat="59.9561855" lon="17.7184972">
        <ele>58.7777</ele>
        <time>2014-06-16T20:32:19Z</time>
      </trkpt>
      <trkpt lat="59.9561592" lon="17.7184428">
        <ele>58.7777</ele>
        <time>2014-06-16T20:32:20Z</time>
      </trkpt>
      <trkpt lat="59.9561308" lon="17.7183857">
        <ele>59.2584</ele>
        <time>2014-06-16T20:32:21Z</time>
      </trkpt>
      <trkpt lat="59.9561061" lon="17.7183172">
        <ele>59.2584</ele>
        <time>2014-06-16T20:32:22Z</time>
      </trkpt>
      <trkpt lat="59.9560778" lon="17.7182457">
        <ele>59.2584</ele>
        <time>2014-06-16T20:32:23Z</time>
      </trkpt>
      <trkpt lat="59.9560483" lon="17.7181853">
        <ele>59.7391</ele>
        <time>2014-06-16T20:32:24Z</time>
      </trkpt>
      <trkpt lat="59.9560218" lon="17.718119">
        <ele>59.7391</ele>
        <time>2014-06-16T20:32:25Z</time>
      </trkpt>
      <trkpt lat="59.9559966" lon="17.7180567">
        <ele>60.2197</ele>
        <time>2014-06-16T20:32:26Z</time>
      </trkpt>
      <trkpt lat="59.9559674" lon="17.7180003">
        <ele>60.7003</ele>
        <time>2014-06-16T20:32:27Z</time>
      </trkpt>
      <trkpt lat="59.9559375" lon="17.7179455">
        <ele>60.2197</ele>
        <time>2014-06-16T20:32:28Z</time>
      </trkpt>
      <trkpt lat="59.9559079" lon="17.7178885">
        <ele>60.2197</ele>
        <time>2014-06-16T20:32:29Z</time>
      </trkpt>
      <trkpt lat="59.9558763" lon="17.7178319">
        <ele>60.7003</ele>
        <time>2014-06-16T20:32:30Z</time>
      </trkpt>
      <trkpt lat="59.9558504" lon="17.7177751">
        <ele>61.6617</ele>
        <time>2014-06-16T20:32:31Z</time>
      </trkpt>
      <trkpt lat="59.9558292" lon="17.717714">
        <ele>62.1423</ele>
        <time>2014-06-16T20:32:32Z</time>
      </trkpt>
      <trkpt lat="59.9558072" lon="17.7176517">
        <ele>62.6229</ele>
        <time>2014-06-16T20:32:33Z</time>
      </trkpt>
      <trkpt lat="59.9557852" lon="17.7175958">
        <ele>63.5844</ele>
        <time>2014-06-16T20:32:34Z</time>
      </trkpt>
      <trkpt lat="59.9557665" lon="17.7175443">
        <ele>64.0651</ele>
        <time>2014-06-16T20:32:35Z</time>
      </trkpt>
      <trkpt lat="59.9557412" lon="17.7174931">
        <ele>64.0651</ele>
        <time>2014-06-16T20:32:36Z</time>
      </trkpt>
      <trkpt lat="59.9557174" lon="17.7174371">
        <ele>64.5457</ele>
        <time>2014-06-16T20:32:37Z</time>
      </trkpt>
      <trkpt lat="59.9557017" lon="17.7173819">
        <ele>65.0264</ele>
        <time>2014-06-16T20:32:38Z</time>
      </trkpt>
      <trkpt lat="59.9556908" lon="17.7173347">
        <ele>65.5071</ele>
        <time>2014-06-16T20:32:39Z</time>
      </trkpt>
      <trkpt lat="59.9556764" lon="17.7172788">
        <ele>65.9877</ele>
        <time>2014-06-16T20:32:40Z</time>
      </trkpt>
      <trkpt lat="59.9556571" lon="17.717216">
        <ele>65.9877</ele>
        <time>2014-06-16T20:32:41Z</time>
      </trkpt>
      <trkpt lat="59.9556313" lon="17.7171509">
        <ele>65.9877</ele>
        <time>2014-06-16T20:32:42Z</time>
      </trkpt>
      <trkpt lat="59.9556063" lon="17.7170904">
        <ele>65.9877</ele>
        <time>2014-06-16T20:32:43Z</time>
      </trkpt>
      <trkpt lat="59.9555848" lon="17.7170342">
        <ele>65.9877</ele>
        <time>2014-06-16T20:32:44Z</time>
      </trkpt>
      <trkpt lat="59.9555629" lon="17.7169721">
        <ele>66.4683</ele>
        <time>2014-06-16T20:32:45Z</time>
      </trkpt>
      <trkpt lat="59.9555436" lon="17.7169043">
        <ele>66.949</ele>
        <time>2014-06-16T20:32:46Z</time>
      </trkpt>
      <trkpt lat="59.9555306" lon="17.7168369">
        <ele>66.4683</ele>
        <time>2014-06-16T20:32:47Z</time>
      </trkpt>
      <trkpt lat="59.955518" lon="17.7167718">
        <ele>65.9877</ele>
        <time>2014-06-16T20:32:48Z</time>
      </trkpt>
      <trkpt lat="59.9555117" lon="17.7166959">
        <ele>66.4683</ele>
        <time>2014-06-16T20:32:49Z</time>
      </trkpt>
      <trkpt lat="59.9555007" lon="17.7166251">
        <ele>66.4683</ele>
        <time>2014-06-16T20:32:50Z</time>
      </trkpt>
      <trkpt lat="59.9554879" lon="17.7165586">
        <ele>65.9877</ele>
        <time>2014-06-16T20:32:51Z</time>
      </trkpt>
      <trkpt lat="59.9554795" lon="17.7164893">
        <ele>65.9877</ele>
        <time>2014-06-16T20:32:52Z</time>
      </trkpt>
      <trkpt lat="59.9554732" lon="17.7164242">
        <ele>65.5071</ele>
        <time>2014-06-16T20:32:53Z</time>
      </trkpt>
      <trkpt lat="59.9554657" lon="17.7163552">
        <ele>65.0264</ele>
        <time>2014-06-16T20:32:54Z</time>
      </trkpt>
      <trkpt lat="59.9554643" lon="17.7162861">
        <ele>65.0264</ele>
        <time>2014-06-16T20:32:55Z</time>
      </trkpt>
      <trkpt lat="59.9554649" lon="17.716223">
        <ele>64.5457</ele>
        <time>2014-06-16T20:32:56Z</time>
      </trkpt>
      <trkpt lat="59.955456" lon="17.7161597">
        <ele>63.5844</ele>
        <time>2014-06-16T20:32:57Z</time>
      </trkpt>
      <trkpt lat="59.9554407" lon="17.7160996">
        <ele>62.6229</ele>
        <time>2014-06-16T20:32:58Z</time>
      </trkpt>
      <trkpt lat="59.9554261" lon="17.7160304">
        <ele>61.6617</ele>
        <time>2014-06-16T20:32:59Z</time>
      </trkpt>
      <trkpt lat="59.955422" lon="17.7159536">
        <ele>60.2197</ele>
        <time>2014-06-16T20:33:00Z</time>
      </trkpt>
      <trkpt lat="59.9554137" lon="17.715881">
        <ele>58.7777</ele>
        <time>2014-06-16T20:33:01Z</time>
      </trkpt>
      <trkpt lat="59.9553993" lon="17.7158092">
        <ele>58.2971</ele>
        <time>2014-06-16T20:33:02Z</time>
      </trkpt>
      <trkpt lat="59.9553928" lon="17.7157342">
        <ele>57.3358</ele>
        <time>2014-06-16T20:33:03Z</time>
      </trkpt>
      <trkpt lat="59.955393" lon="17.7156624">
        <ele>56.8551</ele>
        <time>2014-06-16T20:33:04Z</time>
      </trkpt>
      <trkpt lat="59.9553833" lon="17.7155958">
        <ele>55.8938</ele>
        <time>2014-06-16T20:33:05Z</time>
      </trkpt>
      <trkpt lat="59.9553714" lon="17.7155352">
        <ele>55.8938</ele>
        <time>2014-06-16T20:33:06Z</time>
      </trkpt>
      <trkpt lat="59.9553635" lon="17.7154752">
        <ele>55.4131</ele>
        <time>2014-06-16T20:33:07Z</time>
      </trkpt>
      <trkpt lat="59.9553578" lon="17.7154072">
        <ele>54.9324</ele>
        <time>2014-06-16T20:33:08Z</time>
      </trkpt>
      <trkpt lat="59.9553526" lon="17.7153346">
        <ele>53.9712</ele>
        <time>2014-06-16T20:33:09Z</time>
      </trkpt>
      <trkpt lat="59.9553385" lon="17.7152651">
        <ele>53.0098</ele>
        <time>2014-06-16T20:33:10Z</time>
      </trkpt>
      <trkpt lat="59.9553253" lon="17.7151957">
        <ele>52.5292</ele>
        <time>2014-06-16T20:33:11Z</time>
      </trkpt>
      <trkpt lat="59.955319" lon="17.715132">
        <ele>51.5679</ele>
        <time>2014-06-16T20:33:12Z</time>
      </trkpt>
      <trkpt lat="59.9553195" lon="17.7150725">
        <ele>51.5679</ele>
        <time>2014-06-16T20:33:13Z</time>
      </trkpt>
      <trkpt lat="59.955324" lon="17.7150192">
        <ele>52.0486</ele>
        <time>2014-06-16T20:33:14Z</time>
      </trkpt>
      <trkpt lat="59.9553341" lon="17.7149726">
        <ele>51.5679</ele>
        <time>2014-06-16T20:33:15Z</time>
      </trkpt>
      <trkpt lat="59.9553521" lon="17.7149352">
        <ele>52.0486</ele>
        <time>2014-06-16T20:33:16Z</time>
      </trkpt>
    </trkseg>
  </trk>
</gpx>